<?xml version="1.0" encoding="UTF-8" standalone="yes"?>
<gpx
 xmlns="http://www.topografix.com/GPX/1/1"
 creator="OziExplorer Version 3956f - http://www.oziexplorer.com"
 version="1.1"
 xmlns:xsi="http://www.w3.org/2001/XMLSchema-instance"
 xsi:schemaLocation="http://www.topografix.com/GPX/1/1 http://www.topografix.com/GPX/1/1/gpx.xsd">
<metadata>
 <time>2018-07-12T12:08:16Z</time>
 <bounds minlat="31.768566" minlon="35.013030" maxlat="31.819580" maxlon="35.102420"/>
</metadata>
<wpt lat="31.8095045" lon="35.0201010">
 <ele>312.999969</ele>
 <time>2018-07-12T15:06:33.753Z</time>
 <name>1-Start</name>
 <sym>Navaid, Red</sym>
</wpt>
<wpt lat="31.8095136" lon="35.0200688">
 <ele>312.000000</ele>
 <time>2018-07-12T15:06:33.776Z</time>
 <name>2-Finish</name>
 <sym>Navaid, Red</sym>
</wpt>
<wpt lat="31.7723052" lon="35.0462257">
 <ele>634.000000</ele>
 <time>2018-07-12T15:06:33.776Z</time>
 <name>3-BrehatMaim</name>
 <sym>Navaid, Red</sym>
</wpt>
<trk>
 <name>mishlatim1, 34 km. 881 m.</name>
 <desc>mishlatim1, 34 km. 881 m.</desc>
<trkseg>
<trkpt lat="31.8099962" lon="35.0206772">
<ele>314.000000</ele>
<time>2010-01-01T00:00:00.000Z</time>
</trkpt>
<trkpt lat="31.8092100" lon="35.0199900">
<ele>316.000000</ele>
<time>2010-01-01T00:00:39.000Z</time>
</trkpt>
<trkpt lat="31.8092000" lon="35.0198200">
<ele>314.000000</ele>
<time>2010-01-01T00:00:45.000Z</time>
</trkpt>
<trkpt lat="31.8092300" lon="35.0195600">
<ele>312.000000</ele>
<time>2010-01-01T00:00:53.000Z</time>
</trkpt>
<trkpt lat="31.8095300" lon="35.0182300">
<ele>300.000000</ele>
<time>2010-01-01T00:01:40.000Z</time>
</trkpt>
<trkpt lat="31.8099600" lon="35.0183800">
<ele>301.000000</ele>
<time>2010-01-01T00:01:58.000Z</time>
</trkpt>
<trkpt lat="31.8101100" lon="35.0184900">
<ele>302.000000</ele>
<time>2010-01-01T00:02:05.000Z</time>
</trkpt>
<trkpt lat="31.8101700" lon="35.0185700">
<ele>303.000000</ele>
<time>2010-01-01T00:02:09.000Z</time>
</trkpt>
<trkpt lat="31.8105000" lon="35.0193000">
<ele>309.000000</ele>
<time>2010-01-01T00:02:37.000Z</time>
</trkpt>
<trkpt lat="31.8106000" lon="35.0194000">
<ele>309.000000</ele>
<time>2010-01-01T00:02:42.000Z</time>
</trkpt>
<trkpt lat="31.8135400" lon="35.0212900">
<ele>316.000000</ele>
<time>2010-01-01T00:04:56.000Z</time>
</trkpt>
<trkpt lat="31.8137800" lon="35.0214600">
<ele>314.000000</ele>
<time>2010-01-01T00:05:08.000Z</time>
</trkpt>
<trkpt lat="31.8139300" lon="35.0216500">
<ele>312.000000</ele>
<time>2010-01-01T00:05:16.000Z</time>
</trkpt>
<trkpt lat="31.8139700" lon="35.0217600">
<ele>311.000000</ele>
<time>2010-01-01T00:05:20.000Z</time>
</trkpt>
<trkpt lat="31.8141500" lon="35.0224700">
<ele>309.000000</ele>
<time>2010-01-01T00:05:46.000Z</time>
</trkpt>
<trkpt lat="31.8144700" lon="35.0228200">
<ele>305.000000</ele>
<time>2010-01-01T00:06:03.000Z</time>
</trkpt>
<trkpt lat="31.8148700" lon="35.0231500">
<ele>304.000000</ele>
<time>2010-01-01T00:06:23.000Z</time>
</trkpt>
<trkpt lat="31.8149600" lon="35.0229600">
<ele>303.000000</ele>
<time>2010-01-01T00:06:30.000Z</time>
</trkpt>
<trkpt lat="31.8150300" lon="35.0227300">
<ele>302.000000</ele>
<time>2010-01-01T00:06:38.000Z</time>
</trkpt>
<trkpt lat="31.8153000" lon="35.0225300">
<ele>300.000000</ele>
<time>2010-01-01T00:06:51.000Z</time>
</trkpt>
<trkpt lat="31.8154900" lon="35.0226600">
<ele>299.000000</ele>
<time>2010-01-01T00:07:00.000Z</time>
</trkpt>
<trkpt lat="31.8157300" lon="35.0229100">
<ele>298.000000</ele>
<time>2010-01-01T00:07:13.000Z</time>
</trkpt>
<trkpt lat="31.8164200" lon="35.0223100">
<ele>294.000000</ele>
<time>2010-01-01T00:07:47.000Z</time>
</trkpt>
<trkpt lat="31.8172900" lon="35.0215700">
<ele>283.000000</ele>
<time>2010-01-01T00:08:30.000Z</time>
</trkpt>
<trkpt lat="31.8175800" lon="35.0214300">
<ele>283.000000</ele>
<time>2010-01-01T00:08:43.000Z</time>
</trkpt>
<trkpt lat="31.8177300" lon="35.0211100">
<ele>281.000000</ele>
<time>2010-01-01T00:08:55.000Z</time>
</trkpt>
<trkpt lat="31.8181400" lon="35.0210500">
<ele>281.000000</ele>
<time>2010-01-01T00:09:12.000Z</time>
</trkpt>
<trkpt lat="31.8187600" lon="35.0211300">
<ele>280.000000</ele>
<time>2010-01-01T00:09:37.000Z</time>
</trkpt>
<trkpt lat="31.8190500" lon="35.0212200">
<ele>278.000000</ele>
<time>2010-01-01T00:09:49.000Z</time>
</trkpt>
<trkpt lat="31.8192200" lon="35.0213300">
<ele>277.000000</ele>
<time>2010-01-01T00:09:56.000Z</time>
</trkpt>
<trkpt lat="31.8193200" lon="35.0214700">
<ele>277.000000</ele>
<time>2010-01-01T00:10:03.000Z</time>
</trkpt>
<trkpt lat="31.8193800" lon="35.0216400">
<ele>277.000000</ele>
<time>2010-01-01T00:10:09.000Z</time>
</trkpt>
<trkpt lat="31.8193500" lon="35.0216700">
<ele>277.000000</ele>
<time>2010-01-01T00:10:10.000Z</time>
</trkpt>
<trkpt lat="31.8193300" lon="35.0217700">
<ele>278.000000</ele>
<time>2010-01-01T00:10:14.000Z</time>
</trkpt>
<trkpt lat="31.8193400" lon="35.0218100">
<ele>278.000000</ele>
<time>2010-01-01T00:10:15.000Z</time>
</trkpt>
<trkpt lat="31.8193600" lon="35.0218500">
<ele>278.000000</ele>
<time>2010-01-01T00:10:17.000Z</time>
</trkpt>
<trkpt lat="31.8194400" lon="35.0218800">
<ele>278.000000</ele>
<time>2010-01-01T00:10:20.000Z</time>
</trkpt>
<trkpt lat="31.8194900" lon="35.0218700">
<ele>278.000000</ele>
<time>2010-01-01T00:10:22.000Z</time>
</trkpt>
<trkpt lat="31.8195300" lon="35.0219400">
<ele>278.000000</ele>
<time>2010-01-01T00:10:25.000Z</time>
</trkpt>
<trkpt lat="31.8195800" lon="35.0220800">
<ele>280.000000</ele>
<time>2010-01-01T00:10:30.000Z</time>
</trkpt>
<trkpt lat="31.8195700" lon="35.0222600">
<ele>282.000000</ele>
<time>2010-01-01T00:10:37.000Z</time>
</trkpt>
<trkpt lat="31.8193100" lon="35.0225400">
<ele>282.000000</ele>
<time>2010-01-01T00:10:51.000Z</time>
</trkpt>
<trkpt lat="31.8191300" lon="35.0229600">
<ele>282.000000</ele>
<time>2010-01-01T00:11:07.000Z</time>
</trkpt>
<trkpt lat="31.8189900" lon="35.0233700">
<ele>284.000000</ele>
<time>2010-01-01T00:11:22.000Z</time>
</trkpt>
<trkpt lat="31.8190000" lon="35.0239900">
<ele>287.000000</ele>
<time>2010-01-01T00:11:43.000Z</time>
</trkpt>
<trkpt lat="31.8190500" lon="35.0244100">
<ele>290.000000</ele>
<time>2010-01-01T00:11:57.000Z</time>
</trkpt>
<trkpt lat="31.8188500" lon="35.0244300">
<ele>288.000000</ele>
<time>2010-01-01T00:12:05.000Z</time>
</trkpt>
<trkpt lat="31.8186000" lon="35.0246600">
<ele>290.000000</ele>
<time>2010-01-01T00:12:18.000Z</time>
</trkpt>
<trkpt lat="31.8183000" lon="35.0250700">
<ele>291.000000</ele>
<time>2010-01-01T00:12:36.000Z</time>
</trkpt>
<trkpt lat="31.8181600" lon="35.0256100">
<ele>292.000000</ele>
<time>2010-01-01T00:12:56.000Z</time>
</trkpt>
<trkpt lat="31.8180600" lon="35.0259500">
<ele>293.000000</ele>
<time>2010-01-01T00:13:08.000Z</time>
</trkpt>
<trkpt lat="31.8180800" lon="35.0262300">
<ele>295.000000</ele>
<time>2010-01-01T00:13:17.000Z</time>
</trkpt>
<trkpt lat="31.8181600" lon="35.0264800">
<ele>296.000000</ele>
<time>2010-01-01T00:13:26.000Z</time>
</trkpt>
<trkpt lat="31.8181400" lon="35.0269600">
<ele>297.000000</ele>
<time>2010-01-01T00:13:43.000Z</time>
</trkpt>
<trkpt lat="31.8180500" lon="35.0272100">
<ele>299.000000</ele>
<time>2010-01-01T00:13:52.000Z</time>
</trkpt>
<trkpt lat="31.8179800" lon="35.0274900">
<ele>302.000000</ele>
<time>2010-01-01T00:14:02.000Z</time>
</trkpt>
<trkpt lat="31.8175100" lon="35.0283900">
<ele>305.000000</ele>
<time>2010-01-01T00:14:38.000Z</time>
</trkpt>
<trkpt lat="31.8174400" lon="35.0288000">
<ele>306.000000</ele>
<time>2010-01-01T00:14:52.000Z</time>
</trkpt>
<trkpt lat="31.8173100" lon="35.0292800">
<ele>308.000000</ele>
<time>2010-01-01T00:15:09.000Z</time>
</trkpt>
<trkpt lat="31.8172500" lon="35.0296100">
<ele>308.000000</ele>
<time>2010-01-01T00:15:21.000Z</time>
</trkpt>
<trkpt lat="31.8172500" lon="35.0297400">
<ele>309.000000</ele>
<time>2010-01-01T00:15:25.000Z</time>
</trkpt>
<trkpt lat="31.8173100" lon="35.0300300">
<ele>310.000000</ele>
<time>2010-01-01T00:15:35.000Z</time>
</trkpt>
<trkpt lat="31.8174700" lon="35.0306800">
<ele>311.000000</ele>
<time>2010-01-01T00:15:58.000Z</time>
</trkpt>
<trkpt lat="31.8175100" lon="35.0307500">
<ele>311.000000</ele>
<time>2010-01-01T00:16:01.000Z</time>
</trkpt>
<trkpt lat="31.8174800" lon="35.0307900">
<ele>312.000000</ele>
<time>2010-01-01T00:16:03.000Z</time>
</trkpt>
<trkpt lat="31.8174400" lon="35.0308100">
<ele>312.000000</ele>
<time>2010-01-01T00:16:05.000Z</time>
</trkpt>
<trkpt lat="31.8173800" lon="35.0308100">
<ele>312.999969</ele>
<time>2010-01-01T00:16:07.000Z</time>
</trkpt>
<trkpt lat="31.8173200" lon="35.0307800">
<ele>312.999969</ele>
<time>2010-01-01T00:16:10.000Z</time>
</trkpt>
<trkpt lat="31.8171500" lon="35.0305000">
<ele>312.000000</ele>
<time>2010-01-01T00:16:21.000Z</time>
</trkpt>
<trkpt lat="31.8170300" lon="35.0304000">
<ele>312.000000</ele>
<time>2010-01-01T00:16:27.000Z</time>
</trkpt>
<trkpt lat="31.8168800" lon="35.0303300">
<ele>312.999969</ele>
<time>2010-01-01T00:16:34.000Z</time>
</trkpt>
<trkpt lat="31.8166700" lon="35.0303100">
<ele>317.000000</ele>
<time>2010-01-01T00:16:42.000Z</time>
</trkpt>
<trkpt lat="31.8165700" lon="35.0303200">
<ele>319.000000</ele>
<time>2010-01-01T00:16:46.000Z</time>
</trkpt>
<trkpt lat="31.8162800" lon="35.0304100">
<ele>323.999969</ele>
<time>2010-01-01T00:16:58.000Z</time>
</trkpt>
<trkpt lat="31.8161600" lon="35.0304300">
<ele>326.000000</ele>
<time>2010-01-01T00:17:03.000Z</time>
</trkpt>
<trkpt lat="31.8160400" lon="35.0303900">
<ele>328.000000</ele>
<time>2010-01-01T00:17:08.000Z</time>
</trkpt>
<trkpt lat="31.8160000" lon="35.0303200">
<ele>329.000000</ele>
<time>2010-01-01T00:17:11.000Z</time>
</trkpt>
<trkpt lat="31.8160000" lon="35.0302400">
<ele>329.000000</ele>
<time>2010-01-01T00:17:14.000Z</time>
</trkpt>
<trkpt lat="31.8160400" lon="35.0301600">
<ele>329.000000</ele>
<time>2010-01-01T00:17:17.000Z</time>
</trkpt>
<trkpt lat="31.8162600" lon="35.0298500">
<ele>326.000000</ele>
<time>2010-01-01T00:17:31.000Z</time>
</trkpt>
<trkpt lat="31.8163800" lon="35.0296100">
<ele>326.000000</ele>
<time>2010-01-01T00:17:40.000Z</time>
</trkpt>
<trkpt lat="31.8165100" lon="35.0290900">
<ele>326.999969</ele>
<time>2010-01-01T00:17:58.000Z</time>
</trkpt>
<trkpt lat="31.8166100" lon="35.0286100">
<ele>334.000000</ele>
<time>2010-01-01T00:18:15.000Z</time>
</trkpt>
<trkpt lat="31.8167000" lon="35.0282700">
<ele>334.000000</ele>
<time>2010-01-01T00:18:27.000Z</time>
</trkpt>
<trkpt lat="31.8167600" lon="35.0279000">
<ele>333.000000</ele>
<time>2010-01-01T00:18:40.000Z</time>
</trkpt>
<trkpt lat="31.8167400" lon="35.0276900">
<ele>334.000000</ele>
<time>2010-01-01T00:18:47.000Z</time>
</trkpt>
<trkpt lat="31.8166900" lon="35.0275500">
<ele>335.000031</ele>
<time>2010-01-01T00:18:53.000Z</time>
</trkpt>
<trkpt lat="31.8164300" lon="35.0271200">
<ele>342.000000</ele>
<time>2010-01-01T00:19:11.000Z</time>
</trkpt>
<trkpt lat="31.8162200" lon="35.0268900">
<ele>345.000000</ele>
<time>2010-01-01T00:19:22.000Z</time>
</trkpt>
<trkpt lat="31.8160000" lon="35.0267300">
<ele>347.000000</ele>
<time>2010-01-01T00:19:32.000Z</time>
</trkpt>
<trkpt lat="31.8158400" lon="35.0266700">
<ele>348.000000</ele>
<time>2010-01-01T00:19:39.000Z</time>
</trkpt>
<trkpt lat="31.8157200" lon="35.0266300">
<ele>348.000000</ele>
<time>2010-01-01T00:19:44.000Z</time>
</trkpt>
<trkpt lat="31.8155700" lon="35.0266500">
<ele>350.000000</ele>
<time>2010-01-01T00:19:50.000Z</time>
</trkpt>
<trkpt lat="31.8154500" lon="35.0267000">
<ele>351.000000</ele>
<time>2010-01-01T00:19:55.000Z</time>
</trkpt>
<trkpt lat="31.8149900" lon="35.0270500">
<ele>354.000000</ele>
<time>2010-01-01T00:20:17.000Z</time>
</trkpt>
<trkpt lat="31.8148900" lon="35.0271700">
<ele>356.000000</ele>
<time>2010-01-01T00:20:23.000Z</time>
</trkpt>
<trkpt lat="31.8147500" lon="35.0274100">
<ele>358.000000</ele>
<time>2010-01-01T00:20:33.000Z</time>
</trkpt>
<trkpt lat="31.8146500" lon="35.0277400">
<ele>361.000000</ele>
<time>2010-01-01T00:20:45.000Z</time>
</trkpt>
<trkpt lat="31.8146200" lon="35.0279000">
<ele>364.000000</ele>
<time>2010-01-01T00:20:50.000Z</time>
</trkpt>
<trkpt lat="31.8145700" lon="35.0280900">
<ele>366.000000</ele>
<time>2010-01-01T00:20:57.000Z</time>
</trkpt>
<trkpt lat="31.8144300" lon="35.0284100">
<ele>369.000000</ele>
<time>2010-01-01T00:21:09.000Z</time>
</trkpt>
<trkpt lat="31.8143400" lon="35.0285600">
<ele>370.000000</ele>
<time>2010-01-01T00:21:15.000Z</time>
</trkpt>
<trkpt lat="31.8142200" lon="35.0286900">
<ele>371.000000</ele>
<time>2010-01-01T00:21:22.000Z</time>
</trkpt>
<trkpt lat="31.8141300" lon="35.0287600">
<ele>371.000000</ele>
<time>2010-01-01T00:21:26.000Z</time>
</trkpt>
<trkpt lat="31.8139900" lon="35.0288200">
<ele>371.000000</ele>
<time>2010-01-01T00:21:32.000Z</time>
</trkpt>
<trkpt lat="31.8138700" lon="35.0289600">
<ele>372.000000</ele>
<time>2010-01-01T00:21:39.000Z</time>
</trkpt>
<trkpt lat="31.8137800" lon="35.0291300">
<ele>373.000000</ele>
<time>2010-01-01T00:21:46.000Z</time>
</trkpt>
<trkpt lat="31.8136400" lon="35.0295600">
<ele>376.999969</ele>
<time>2010-01-01T00:22:02.000Z</time>
</trkpt>
<trkpt lat="31.8135900" lon="35.0298200">
<ele>379.000000</ele>
<time>2010-01-01T00:22:11.000Z</time>
</trkpt>
<trkpt lat="31.8135900" lon="35.0299600">
<ele>380.000000</ele>
<time>2010-01-01T00:22:15.000Z</time>
</trkpt>
<trkpt lat="31.8136000" lon="35.0300700">
<ele>381.000000</ele>
<time>2010-01-01T00:22:19.000Z</time>
</trkpt>
<trkpt lat="31.8137800" lon="35.0307400">
<ele>387.999969</ele>
<time>2010-01-01T00:22:43.000Z</time>
</trkpt>
<trkpt lat="31.8137800" lon="35.0308700">
<ele>387.999969</ele>
<time>2010-01-01T00:22:47.000Z</time>
</trkpt>
<trkpt lat="31.8137600" lon="35.0310500">
<ele>387.999969</ele>
<time>2010-01-01T00:22:54.000Z</time>
</trkpt>
<trkpt lat="31.8137100" lon="35.0311900">
<ele>389.000000</ele>
<time>2010-01-01T00:22:59.000Z</time>
</trkpt>
<trkpt lat="31.8136400" lon="35.0313100">
<ele>391.000000</ele>
<time>2010-01-01T00:23:04.000Z</time>
</trkpt>
<trkpt lat="31.8135500" lon="35.0314000">
<ele>392.000000</ele>
<time>2010-01-01T00:23:08.000Z</time>
</trkpt>
<trkpt lat="31.8134100" lon="35.0314800">
<ele>395.000000</ele>
<time>2010-01-01T00:23:15.000Z</time>
</trkpt>
<trkpt lat="31.8132900" lon="35.0315100">
<ele>397.000000</ele>
<time>2010-01-01T00:23:20.000Z</time>
</trkpt>
<trkpt lat="31.8130400" lon="35.0315200">
<ele>399.000031</ele>
<time>2010-01-01T00:23:30.000Z</time>
</trkpt>
<trkpt lat="31.8128900" lon="35.0315000">
<ele>399.000031</ele>
<time>2010-01-01T00:23:36.000Z</time>
</trkpt>
<trkpt lat="31.8124100" lon="35.0313800">
<ele>400.000000</ele>
<time>2010-01-01T00:23:55.000Z</time>
</trkpt>
<trkpt lat="31.8123200" lon="35.0313900">
<ele>401.000000</ele>
<time>2010-01-01T00:23:59.000Z</time>
</trkpt>
<trkpt lat="31.8122100" lon="35.0314400">
<ele>401.999969</ele>
<time>2010-01-01T00:24:04.000Z</time>
</trkpt>
<trkpt lat="31.8121500" lon="35.0315100">
<ele>401.999969</ele>
<time>2010-01-01T00:24:07.000Z</time>
</trkpt>
<trkpt lat="31.8120900" lon="35.0316200">
<ele>401.999969</ele>
<time>2010-01-01T00:24:11.000Z</time>
</trkpt>
<trkpt lat="31.8120600" lon="35.0317000">
<ele>403.000000</ele>
<time>2010-01-01T00:24:14.000Z</time>
</trkpt>
<trkpt lat="31.8120000" lon="35.0324300">
<ele>412.000000</ele>
<time>2010-01-01T00:24:39.000Z</time>
</trkpt>
<trkpt lat="31.8119200" lon="35.0326900">
<ele>414.000000</ele>
<time>2010-01-01T00:24:49.000Z</time>
</trkpt>
<trkpt lat="31.8118400" lon="35.0329200">
<ele>415.000000</ele>
<time>2010-01-01T00:24:57.000Z</time>
</trkpt>
<trkpt lat="31.8116700" lon="35.0333000">
<ele>415.999969</ele>
<time>2010-01-01T00:25:12.000Z</time>
</trkpt>
<trkpt lat="31.8115100" lon="35.0337000">
<ele>418.000000</ele>
<time>2010-01-01T00:25:27.000Z</time>
</trkpt>
<trkpt lat="31.8114200" lon="35.0338800">
<ele>422.000000</ele>
<time>2010-01-01T00:25:34.000Z</time>
</trkpt>
<trkpt lat="31.8113200" lon="35.0340000">
<ele>424.000031</ele>
<time>2010-01-01T00:25:40.000Z</time>
</trkpt>
<trkpt lat="31.8111400" lon="35.0341300">
<ele>428.000000</ele>
<time>2010-01-01T00:25:48.000Z</time>
</trkpt>
<trkpt lat="31.8112700" lon="35.0342000">
<ele>426.999969</ele>
<time>2010-01-01T00:25:54.000Z</time>
</trkpt>
<trkpt lat="31.8114300" lon="35.0343500">
<ele>425.000000</ele>
<time>2010-01-01T00:26:02.000Z</time>
</trkpt>
<trkpt lat="31.8115600" lon="35.0344300">
<ele>422.000000</ele>
<time>2010-01-01T00:26:08.000Z</time>
</trkpt>
<trkpt lat="31.8120800" lon="35.0345800">
<ele>411.000000</ele>
<time>2010-01-01T00:26:29.000Z</time>
</trkpt>
<trkpt lat="31.8122000" lon="35.0346500">
<ele>408.000000</ele>
<time>2010-01-01T00:26:35.000Z</time>
</trkpt>
<trkpt lat="31.8123400" lon="35.0348000">
<ele>407.000000</ele>
<time>2010-01-01T00:26:42.000Z</time>
</trkpt>
<trkpt lat="31.8121600" lon="35.0351700">
<ele>412.999969</ele>
<time>2010-01-01T00:26:57.000Z</time>
</trkpt>
<trkpt lat="31.8121000" lon="35.0353900">
<ele>415.999969</ele>
<time>2010-01-01T00:27:05.000Z</time>
</trkpt>
<trkpt lat="31.8118900" lon="35.0362900">
<ele>426.000000</ele>
<time>2010-01-01T00:27:36.000Z</time>
</trkpt>
<trkpt lat="31.8115700" lon="35.0380500">
<ele>445.000000</ele>
<time>2010-01-01T00:28:38.000Z</time>
</trkpt>
<trkpt lat="31.8115700" lon="35.0384000">
<ele>450.000000</ele>
<time>2010-01-01T00:28:50.000Z</time>
</trkpt>
<trkpt lat="31.8115100" lon="35.0386200">
<ele>453.000000</ele>
<time>2010-01-01T00:28:57.000Z</time>
</trkpt>
<trkpt lat="31.8115200" lon="35.0387900">
<ele>455.000000</ele>
<time>2010-01-01T00:29:03.000Z</time>
</trkpt>
<trkpt lat="31.8113700" lon="35.0389500">
<ele>455.000000</ele>
<time>2010-01-01T00:29:11.000Z</time>
</trkpt>
<trkpt lat="31.8111400" lon="35.0393100">
<ele>457.000000</ele>
<time>2010-01-01T00:29:27.000Z</time>
</trkpt>
<trkpt lat="31.8110700" lon="35.0393600">
<ele>458.000000</ele>
<time>2010-01-01T00:29:30.000Z</time>
</trkpt>
<trkpt lat="31.8097000" lon="35.0399700">
<ele>483.000000</ele>
<time>2010-01-01T00:30:29.000Z</time>
</trkpt>
<trkpt lat="31.8095600" lon="35.0400600">
<ele>484.000000</ele>
<time>2010-01-01T00:30:35.000Z</time>
</trkpt>
<trkpt lat="31.8095200" lon="35.0401100">
<ele>484.000000</ele>
<time>2010-01-01T00:30:37.000Z</time>
</trkpt>
<trkpt lat="31.8094900" lon="35.0401800">
<ele>484.000000</ele>
<time>2010-01-01T00:30:40.000Z</time>
</trkpt>
<trkpt lat="31.8094700" lon="35.0404500">
<ele>484.000000</ele>
<time>2010-01-01T00:30:49.000Z</time>
</trkpt>
<trkpt lat="31.8094500" lon="35.0405200">
<ele>484.000000</ele>
<time>2010-01-01T00:30:52.000Z</time>
</trkpt>
<trkpt lat="31.8092500" lon="35.0407200">
<ele>486.000000</ele>
<time>2010-01-01T00:31:02.000Z</time>
</trkpt>
<trkpt lat="31.8091300" lon="35.0409300">
<ele>488.000031</ele>
<time>2010-01-01T00:31:11.000Z</time>
</trkpt>
<trkpt lat="31.8088600" lon="35.0412900">
<ele>492.000000</ele>
<time>2010-01-01T00:31:27.000Z</time>
</trkpt>
<trkpt lat="31.8086400" lon="35.0415500">
<ele>494.000000</ele>
<time>2010-01-01T00:31:40.000Z</time>
</trkpt>
<trkpt lat="31.8083400" lon="35.0416900">
<ele>493.000000</ele>
<time>2010-01-01T00:31:53.000Z</time>
</trkpt>
<trkpt lat="31.8082300" lon="35.0417700">
<ele>492.000000</ele>
<time>2010-01-01T00:31:58.000Z</time>
</trkpt>
<trkpt lat="31.8081900" lon="35.0418200">
<ele>492.000000</ele>
<time>2010-01-01T00:32:00.000Z</time>
</trkpt>
<trkpt lat="31.8081400" lon="35.0419300">
<ele>493.000000</ele>
<time>2010-01-01T00:32:04.000Z</time>
</trkpt>
<trkpt lat="31.8081100" lon="35.0422400">
<ele>498.000000</ele>
<time>2010-01-01T00:32:15.000Z</time>
</trkpt>
<trkpt lat="31.8081300" lon="35.0433200">
<ele>509.000000</ele>
<time>2010-01-01T00:32:52.000Z</time>
</trkpt>
<trkpt lat="31.8080600" lon="35.0442900">
<ele>518.000000</ele>
<time>2010-01-01T00:33:25.000Z</time>
</trkpt>
<trkpt lat="31.8080500" lon="35.0452800">
<ele>529.000000</ele>
<time>2010-01-01T00:33:58.000Z</time>
</trkpt>
<trkpt lat="31.8079700" lon="35.0461300">
<ele>534.000000</ele>
<time>2010-01-01T00:34:28.000Z</time>
</trkpt>
<trkpt lat="31.8078400" lon="35.0467900">
<ele>539.000000</ele>
<time>2010-01-01T00:34:51.000Z</time>
</trkpt>
<trkpt lat="31.8078200" lon="35.0471300">
<ele>544.000000</ele>
<time>2010-01-01T00:35:02.000Z</time>
</trkpt>
<trkpt lat="31.8078300" lon="35.0475800">
<ele>546.000000</ele>
<time>2010-01-01T00:35:18.000Z</time>
</trkpt>
<trkpt lat="31.8079000" lon="35.0479000">
<ele>548.000000</ele>
<time>2010-01-01T00:35:29.000Z</time>
</trkpt>
<trkpt lat="31.8081400" lon="35.0488000">
<ele>556.000000</ele>
<time>2010-01-01T00:36:01.000Z</time>
</trkpt>
<trkpt lat="31.8082700" lon="35.0491400">
<ele>561.000000</ele>
<time>2010-01-01T00:36:14.000Z</time>
</trkpt>
<trkpt lat="31.8084400" lon="35.0494700">
<ele>564.000000</ele>
<time>2010-01-01T00:36:27.000Z</time>
</trkpt>
<trkpt lat="31.8084300" lon="35.0494700">
<ele>564.000000</ele>
<time>2010-01-01T00:36:27.000Z</time>
</trkpt>
<trkpt lat="31.8085900" lon="35.0497500">
<ele>566.000000</ele>
<time>2010-01-01T00:36:39.000Z</time>
</trkpt>
<trkpt lat="31.8086000" lon="35.0499100">
<ele>566.000000</ele>
<time>2010-01-01T00:36:44.000Z</time>
</trkpt>
<trkpt lat="31.8084100" lon="35.0500600">
<ele>566.000000</ele>
<time>2010-01-01T00:36:53.000Z</time>
</trkpt>
<trkpt lat="31.8081400" lon="35.0501800">
<ele>566.000000</ele>
<time>2010-01-01T00:37:05.000Z</time>
</trkpt>
<trkpt lat="31.8079000" lon="35.0502500">
<ele>565.000000</ele>
<time>2010-01-01T00:37:15.000Z</time>
</trkpt>
<trkpt lat="31.8076900" lon="35.0503400">
<ele>564.000000</ele>
<time>2010-01-01T00:37:24.000Z</time>
</trkpt>
<trkpt lat="31.8075600" lon="35.0504100">
<ele>565.000000</ele>
<time>2010-01-01T00:37:29.000Z</time>
</trkpt>
<trkpt lat="31.8074500" lon="35.0505000">
<ele>565.000000</ele>
<time>2010-01-01T00:37:35.000Z</time>
</trkpt>
<trkpt lat="31.8074000" lon="35.0505700">
<ele>565.000000</ele>
<time>2010-01-01T00:37:38.000Z</time>
</trkpt>
<trkpt lat="31.8073500" lon="35.0506700">
<ele>565.000000</ele>
<time>2010-01-01T00:37:42.000Z</time>
</trkpt>
<trkpt lat="31.8073200" lon="35.0507800">
<ele>565.000000</ele>
<time>2010-01-01T00:37:46.000Z</time>
</trkpt>
<trkpt lat="31.8073000" lon="35.0509300">
<ele>565.000000</ele>
<time>2010-01-01T00:37:51.000Z</time>
</trkpt>
<trkpt lat="31.8072900" lon="35.0510900">
<ele>565.000000</ele>
<time>2010-01-01T00:37:56.000Z</time>
</trkpt>
<trkpt lat="31.8073500" lon="35.0515000">
<ele>562.000000</ele>
<time>2010-01-01T00:38:10.000Z</time>
</trkpt>
<trkpt lat="31.8074100" lon="35.0517000">
<ele>561.000000</ele>
<time>2010-01-01T00:38:18.000Z</time>
</trkpt>
<trkpt lat="31.8074700" lon="35.0518400">
<ele>561.000000</ele>
<time>2010-01-01T00:38:23.000Z</time>
</trkpt>
<trkpt lat="31.8076200" lon="35.0521100">
<ele>563.000000</ele>
<time>2010-01-01T00:38:34.000Z</time>
</trkpt>
<trkpt lat="31.8079400" lon="35.0526000">
<ele>562.000000</ele>
<time>2010-01-01T00:38:55.000Z</time>
</trkpt>
<trkpt lat="31.8081000" lon="35.0529000">
<ele>559.000000</ele>
<time>2010-01-01T00:39:07.000Z</time>
</trkpt>
<trkpt lat="31.8084000" lon="35.0535100">
<ele>556.000000</ele>
<time>2010-01-01T00:39:31.000Z</time>
</trkpt>
<trkpt lat="31.8085100" lon="35.0538000">
<ele>555.000000</ele>
<time>2010-01-01T00:39:42.000Z</time>
</trkpt>
<trkpt lat="31.8085300" lon="35.0540100">
<ele>554.000000</ele>
<time>2010-01-01T00:39:49.000Z</time>
</trkpt>
<trkpt lat="31.8085300" lon="35.0542100">
<ele>553.000000</ele>
<time>2010-01-01T00:39:56.000Z</time>
</trkpt>
<trkpt lat="31.8084800" lon="35.0547700">
<ele>552.000000</ele>
<time>2010-01-01T00:40:15.000Z</time>
</trkpt>
<trkpt lat="31.8084600" lon="35.0552800">
<ele>553.000000</ele>
<time>2010-01-01T00:40:32.000Z</time>
</trkpt>
<trkpt lat="31.8085300" lon="35.0560000">
<ele>556.000000</ele>
<time>2010-01-01T00:40:57.000Z</time>
</trkpt>
<trkpt lat="31.8085800" lon="35.0563300">
<ele>554.000000</ele>
<time>2010-01-01T00:41:08.000Z</time>
</trkpt>
<trkpt lat="31.8085800" lon="35.0563200">
<ele>554.000000</ele>
<time>2010-01-01T00:41:09.000Z</time>
</trkpt>
<trkpt lat="31.8086100" lon="35.0565300">
<ele>553.000000</ele>
<time>2010-01-01T00:41:16.000Z</time>
</trkpt>
<trkpt lat="31.8087400" lon="35.0570900">
<ele>551.000000</ele>
<time>2010-01-01T00:41:36.000Z</time>
</trkpt>
<trkpt lat="31.8089300" lon="35.0580500">
<ele>553.000000</ele>
<time>2010-01-01T00:42:09.000Z</time>
</trkpt>
<trkpt lat="31.8089400" lon="35.0585500">
<ele>552.000000</ele>
<time>2010-01-01T00:42:26.000Z</time>
</trkpt>
<trkpt lat="31.8089100" lon="35.0589300">
<ele>554.000000</ele>
<time>2010-01-01T00:42:39.000Z</time>
</trkpt>
<trkpt lat="31.8088400" lon="35.0595700">
<ele>558.000000</ele>
<time>2010-01-01T00:43:01.000Z</time>
</trkpt>
<trkpt lat="31.8087600" lon="35.0598800">
<ele>560.000000</ele>
<time>2010-01-01T00:43:12.000Z</time>
</trkpt>
<trkpt lat="31.8085900" lon="35.0603600">
<ele>565.000000</ele>
<time>2010-01-01T00:43:30.000Z</time>
</trkpt>
<trkpt lat="31.8083200" lon="35.0609600">
<ele>570.000000</ele>
<time>2010-01-01T00:43:53.000Z</time>
</trkpt>
<trkpt lat="31.8081700" lon="35.0612400">
<ele>572.000000</ele>
<time>2010-01-01T00:44:04.000Z</time>
</trkpt>
<trkpt lat="31.8080400" lon="35.0614600">
<ele>574.000000</ele>
<time>2010-01-01T00:44:13.000Z</time>
</trkpt>
<trkpt lat="31.8073200" lon="35.0624400">
<ele>577.000000</ele>
<time>2010-01-01T00:44:57.000Z</time>
</trkpt>
<trkpt lat="31.8067600" lon="35.0630600">
<ele>578.000000</ele>
<time>2010-01-01T00:45:28.000Z</time>
</trkpt>
<trkpt lat="31.8065900" lon="35.0632700">
<ele>576.000000</ele>
<time>2010-01-01T00:45:38.000Z</time>
</trkpt>
<trkpt lat="31.8062600" lon="35.0637600">
<ele>574.000000</ele>
<time>2010-01-01T00:45:59.000Z</time>
</trkpt>
<trkpt lat="31.8054500" lon="35.0650600">
<ele>576.000000</ele>
<time>2010-01-01T00:46:54.000Z</time>
</trkpt>
<trkpt lat="31.8051900" lon="35.0653800">
<ele>575.000000</ele>
<time>2010-01-01T00:47:09.000Z</time>
</trkpt>
<trkpt lat="31.8049800" lon="35.0657200">
<ele>578.000000</ele>
<time>2010-01-01T00:47:24.000Z</time>
</trkpt>
<trkpt lat="31.8048700" lon="35.0659600">
<ele>580.000000</ele>
<time>2010-01-01T00:47:33.000Z</time>
</trkpt>
<trkpt lat="31.8048300" lon="35.0661400">
<ele>582.000000</ele>
<time>2010-01-01T00:47:39.000Z</time>
</trkpt>
<trkpt lat="31.8047900" lon="35.0665100">
<ele>587.000000</ele>
<time>2010-01-01T00:47:52.000Z</time>
</trkpt>
<trkpt lat="31.8047600" lon="35.0666000">
<ele>587.000000</ele>
<time>2010-01-01T00:47:55.000Z</time>
</trkpt>
<trkpt lat="31.8047200" lon="35.0667000">
<ele>588.000000</ele>
<time>2010-01-01T00:47:59.000Z</time>
</trkpt>
<trkpt lat="31.8046200" lon="35.0668400">
<ele>588.000000</ele>
<time>2010-01-01T00:48:05.000Z</time>
</trkpt>
<trkpt lat="31.8044200" lon="35.0670700">
<ele>588.000000</ele>
<time>2010-01-01T00:48:16.000Z</time>
</trkpt>
<trkpt lat="31.8043400" lon="35.0672400">
<ele>589.000000</ele>
<time>2010-01-01T00:48:23.000Z</time>
</trkpt>
<trkpt lat="31.8043000" lon="35.0673800">
<ele>589.000000</ele>
<time>2010-01-01T00:48:28.000Z</time>
</trkpt>
<trkpt lat="31.8042800" lon="35.0675400">
<ele>589.000000</ele>
<time>2010-01-01T00:48:33.000Z</time>
</trkpt>
<trkpt lat="31.8042800" lon="35.0678800">
<ele>589.000000</ele>
<time>2010-01-01T00:48:45.000Z</time>
</trkpt>
<trkpt lat="31.8042600" lon="35.0681300">
<ele>589.000000</ele>
<time>2010-01-01T00:48:54.000Z</time>
</trkpt>
<trkpt lat="31.8040600" lon="35.0686600">
<ele>589.000000</ele>
<time>2010-01-01T00:49:13.000Z</time>
</trkpt>
<trkpt lat="31.8039400" lon="35.0689000">
<ele>589.000000</ele>
<time>2010-01-01T00:49:23.000Z</time>
</trkpt>
<trkpt lat="31.8037900" lon="35.0691400">
<ele>589.000000</ele>
<time>2010-01-01T00:49:33.000Z</time>
</trkpt>
<trkpt lat="31.8035100" lon="35.0695300">
<ele>589.000000</ele>
<time>2010-01-01T00:49:50.000Z</time>
</trkpt>
<trkpt lat="31.8034100" lon="35.0696500">
<ele>588.000000</ele>
<time>2010-01-01T00:49:56.000Z</time>
</trkpt>
<trkpt lat="31.8026200" lon="35.0708900">
<ele>584.000000</ele>
<time>2010-01-01T00:50:49.000Z</time>
</trkpt>
<trkpt lat="31.8024500" lon="35.0712000">
<ele>585.000000</ele>
<time>2010-01-01T00:51:01.000Z</time>
</trkpt>
<trkpt lat="31.8023500" lon="35.0714400">
<ele>585.000000</ele>
<time>2010-01-01T00:51:10.000Z</time>
</trkpt>
<trkpt lat="31.8023300" lon="35.0715800">
<ele>585.000000</ele>
<time>2010-01-01T00:51:15.000Z</time>
</trkpt>
<trkpt lat="31.8024000" lon="35.0719100">
<ele>586.000000</ele>
<time>2010-01-01T00:51:27.000Z</time>
</trkpt>
<trkpt lat="31.8018200" lon="35.0727900">
<ele>583.000000</ele>
<time>2010-01-01T00:52:05.000Z</time>
</trkpt>
<trkpt lat="31.8015700" lon="35.0733300">
<ele>585.000000</ele>
<time>2010-01-01T00:52:26.000Z</time>
</trkpt>
<trkpt lat="31.8011300" lon="35.0747300">
<ele>585.000000</ele>
<time>2010-01-01T00:53:16.000Z</time>
</trkpt>
<trkpt lat="31.8011100" lon="35.0748500">
<ele>585.000000</ele>
<time>2010-01-01T00:53:20.000Z</time>
</trkpt>
<trkpt lat="31.8011100" lon="35.0752200">
<ele>583.000000</ele>
<time>2010-01-01T00:53:33.000Z</time>
</trkpt>
<trkpt lat="31.8011400" lon="35.0754100">
<ele>583.000000</ele>
<time>2010-01-01T00:53:40.000Z</time>
</trkpt>
<trkpt lat="31.8011800" lon="35.0755600">
<ele>584.000000</ele>
<time>2010-01-01T00:53:45.000Z</time>
</trkpt>
<trkpt lat="31.8012500" lon="35.0756400">
<ele>585.000000</ele>
<time>2010-01-01T00:53:49.000Z</time>
</trkpt>
<trkpt lat="31.8013100" lon="35.0756700">
<ele>586.000000</ele>
<time>2010-01-01T00:53:51.000Z</time>
</trkpt>
<trkpt lat="31.8013600" lon="35.0756800">
<ele>586.000000</ele>
<time>2010-01-01T00:53:54.000Z</time>
</trkpt>
<trkpt lat="31.8014600" lon="35.0756400">
<ele>587.000000</ele>
<time>2010-01-01T00:53:58.000Z</time>
</trkpt>
<trkpt lat="31.8016800" lon="35.0754400">
<ele>586.000000</ele>
<time>2010-01-01T00:54:09.000Z</time>
</trkpt>
<trkpt lat="31.8018400" lon="35.0753200">
<ele>586.000000</ele>
<time>2010-01-01T00:54:16.000Z</time>
</trkpt>
<trkpt lat="31.8020400" lon="35.0752500">
<ele>585.000000</ele>
<time>2010-01-01T00:54:25.000Z</time>
</trkpt>
<trkpt lat="31.8021800" lon="35.0752500">
<ele>586.000000</ele>
<time>2010-01-01T00:54:30.000Z</time>
</trkpt>
<trkpt lat="31.8024500" lon="35.0753300">
<ele>589.000000</ele>
<time>2010-01-01T00:54:42.000Z</time>
</trkpt>
<trkpt lat="31.8025200" lon="35.0753600">
<ele>590.000000</ele>
<time>2010-01-01T00:54:45.000Z</time>
</trkpt>
<trkpt lat="31.8026919" lon="35.0754511">
<ele>591.000000</ele>
<time>2010-01-01T00:54:52.000Z</time>
</trkpt>
<trkpt lat="31.8029792" lon="35.0757890">
<ele>595.000000</ele>
<time>2010-01-01T00:55:08.000Z</time>
</trkpt>
<trkpt lat="31.8032117" lon="35.0761055">
<ele>596.000000</ele>
<time>2010-01-01T00:55:23.000Z</time>
</trkpt>
<trkpt lat="31.8033667" lon="35.0763738">
<ele>596.000000</ele>
<time>2010-01-01T00:55:34.000Z</time>
</trkpt>
<trkpt lat="31.8035901" lon="35.0766903">
<ele>591.000000</ele>
<time>2010-01-01T00:55:48.000Z</time>
</trkpt>
<trkpt lat="31.8037314" lon="35.0768941">
<ele>590.000000</ele>
<time>2010-01-01T00:55:57.000Z</time>
</trkpt>
<trkpt lat="31.8038636" lon="35.0771945">
<ele>593.000000</ele>
<time>2010-01-01T00:56:08.000Z</time>
</trkpt>
<trkpt lat="31.8040323" lon="35.0775915">
<ele>595.000000</ele>
<time>2010-01-01T00:56:23.000Z</time>
</trkpt>
<trkpt lat="31.8040824" lon="35.0778919">
<ele>597.000000</ele>
<time>2010-01-01T00:56:34.000Z</time>
</trkpt>
<trkpt lat="31.8040596" lon="35.0782728">
<ele>604.000000</ele>
<time>2010-01-01T00:56:47.000Z</time>
</trkpt>
<trkpt lat="31.8040642" lon="35.0788253">
<ele>610.000000</ele>
<time>2010-01-01T00:57:05.000Z</time>
</trkpt>
<trkpt lat="31.8039730" lon="35.0793617">
<ele>614.000000</ele>
<time>2010-01-01T00:57:24.000Z</time>
</trkpt>
<trkpt lat="31.8038499" lon="35.0797909">
<ele>618.000000</ele>
<time>2010-01-01T00:57:39.000Z</time>
</trkpt>
<trkpt lat="31.8037451" lon="35.0800913">
<ele>620.000000</ele>
<time>2010-01-01T00:57:50.000Z</time>
</trkpt>
<trkpt lat="31.8036630" lon="35.0804024">
<ele>621.000000</ele>
<time>2010-01-01T00:58:02.000Z</time>
</trkpt>
<trkpt lat="31.8035992" lon="35.0807082">
<ele>623.000000</ele>
<time>2010-01-01T00:58:12.000Z</time>
</trkpt>
<trkpt lat="31.8034989" lon="35.0809067">
<ele>627.000000</ele>
<time>2010-01-01T00:58:20.000Z</time>
</trkpt>
<trkpt lat="31.8033667" lon="35.0811105">
<ele>631.000000</ele>
<time>2010-01-01T00:58:29.000Z</time>
</trkpt>
<trkpt lat="31.8032481" lon="35.0813144">
<ele>632.000000</ele>
<time>2010-01-01T00:58:37.000Z</time>
</trkpt>
<trkpt lat="31.8031342" lon="35.0815236">
<ele>633.000000</ele>
<time>2010-01-01T00:58:46.000Z</time>
</trkpt>
<trkpt lat="31.8030247" lon="35.0818079">
<ele>635.000000</ele>
<time>2010-01-01T00:58:56.000Z</time>
</trkpt>
<trkpt lat="31.8029290" lon="35.0820761">
<ele>638.000000</ele>
<time>2010-01-01T00:59:06.000Z</time>
</trkpt>
<trkpt lat="31.8027786" lon="35.0823122">
<ele>642.000061</ele>
<time>2010-01-01T00:59:16.000Z</time>
</trkpt>
<trkpt lat="31.8027740" lon="35.0827896">
<ele>641.000000</ele>
<time>2010-01-01T00:59:32.000Z</time>
</trkpt>
<trkpt lat="31.8027466" lon="35.0834655">
<ele>643.000000</ele>
<time>2010-01-01T00:59:56.000Z</time>
</trkpt>
<trkpt lat="31.8027193" lon="35.0839054">
<ele>644.000000</ele>
<time>2010-01-01T01:00:11.000Z</time>
</trkpt>
<trkpt lat="31.8026327" lon="35.0842809">
<ele>645.000061</ele>
<time>2010-01-01T01:00:24.000Z</time>
</trkpt>
<trkpt lat="31.8026190" lon="35.0847208">
<ele>646.000000</ele>
<time>2010-01-01T01:00:39.000Z</time>
</trkpt>
<trkpt lat="31.8025688" lon="35.0852304">
<ele>646.000000</ele>
<time>2010-01-01T01:00:56.000Z</time>
</trkpt>
<trkpt lat="31.8024184" lon="35.0857079">
<ele>646.000000</ele>
<time>2010-01-01T01:01:14.000Z</time>
</trkpt>
<trkpt lat="31.8023637" lon="35.0862443">
<ele>649.000000</ele>
<time>2010-01-01T01:01:32.000Z</time>
</trkpt>
<trkpt lat="31.8022725" lon="35.0864160">
<ele>650.000000</ele>
<time>2010-01-01T01:01:39.000Z</time>
</trkpt>
<trkpt lat="31.8020810" lon="35.0867271">
<ele>650.999939</ele>
<time>2010-01-01T01:01:52.000Z</time>
</trkpt>
<trkpt lat="31.8018348" lon="35.0869202">
<ele>653.999939</ele>
<time>2010-01-01T01:02:04.000Z</time>
</trkpt>
<trkpt lat="31.8015978" lon="35.0871348">
<ele>656.000000</ele>
<time>2010-01-01T01:02:16.000Z</time>
</trkpt>
<trkpt lat="31.8020400" lon="35.0870300">
<ele>649.000000</ele>
<time>2010-01-01T01:02:34.000Z</time>
</trkpt>
<trkpt lat="31.8023900" lon="35.0868100">
<ele>644.000000</ele>
<time>2010-01-01T01:02:50.000Z</time>
</trkpt>
<trkpt lat="31.8026400" lon="35.0867100">
<ele>639.000000</ele>
<time>2010-01-01T01:03:00.000Z</time>
</trkpt>
<trkpt lat="31.8028100" lon="35.0866600">
<ele>636.000000</ele>
<time>2010-01-01T01:03:07.000Z</time>
</trkpt>
<trkpt lat="31.8029300" lon="35.0865600">
<ele>634.000000</ele>
<time>2010-01-01T01:03:13.000Z</time>
</trkpt>
<trkpt lat="31.8031800" lon="35.0864500">
<ele>631.000000</ele>
<time>2010-01-01T01:03:24.000Z</time>
</trkpt>
<trkpt lat="31.8033700" lon="35.0864300">
<ele>628.999939</ele>
<time>2010-01-01T01:03:31.000Z</time>
</trkpt>
<trkpt lat="31.8034700" lon="35.0864400">
<ele>628.000000</ele>
<time>2010-01-01T01:03:35.000Z</time>
</trkpt>
<trkpt lat="31.8035600" lon="35.0865400">
<ele>628.999939</ele>
<time>2010-01-01T01:03:40.000Z</time>
</trkpt>
<trkpt lat="31.8034600" lon="35.0866700">
<ele>631.000000</ele>
<time>2010-01-01T01:03:46.000Z</time>
</trkpt>
<trkpt lat="31.8033600" lon="35.0868800">
<ele>632.000000</ele>
<time>2010-01-01T01:03:55.000Z</time>
</trkpt>
<trkpt lat="31.8033100" lon="35.0872300">
<ele>635.000000</ele>
<time>2010-01-01T01:04:07.000Z</time>
</trkpt>
<trkpt lat="31.8032400" lon="35.0874500">
<ele>635.000000</ele>
<time>2010-01-01T01:04:15.000Z</time>
</trkpt>
<trkpt lat="31.8032000" lon="35.0876600">
<ele>637.000000</ele>
<time>2010-01-01T01:04:22.000Z</time>
</trkpt>
<trkpt lat="31.8032000" lon="35.0877800">
<ele>638.000000</ele>
<time>2010-01-01T01:04:26.000Z</time>
</trkpt>
<trkpt lat="31.8032600" lon="35.0881600">
<ele>644.000000</ele>
<time>2010-01-01T01:04:39.000Z</time>
</trkpt>
<trkpt lat="31.8034200" lon="35.0885300">
<ele>647.999939</ele>
<time>2010-01-01T01:04:53.000Z</time>
</trkpt>
<trkpt lat="31.8034700" lon="35.0888300">
<ele>650.999939</ele>
<time>2010-01-01T01:05:04.000Z</time>
</trkpt>
<trkpt lat="31.8035600" lon="35.0890300">
<ele>653.000000</ele>
<time>2010-01-01T01:05:11.000Z</time>
</trkpt>
<trkpt lat="31.8037000" lon="35.0891900">
<ele>656.000000</ele>
<time>2010-01-01T01:05:19.000Z</time>
</trkpt>
<trkpt lat="31.8038200" lon="35.0892700">
<ele>658.000000</ele>
<time>2010-01-01T01:05:25.000Z</time>
</trkpt>
<trkpt lat="31.8039300" lon="35.0892800">
<ele>659.000000</ele>
<time>2010-01-01T01:05:29.000Z</time>
</trkpt>
<trkpt lat="31.8040800" lon="35.0892600">
<ele>662.000000</ele>
<time>2010-01-01T01:05:35.000Z</time>
</trkpt>
<trkpt lat="31.8041700" lon="35.0892800">
<ele>664.000000</ele>
<time>2010-01-01T01:05:39.000Z</time>
</trkpt>
<trkpt lat="31.8042200" lon="35.0893300">
<ele>665.000000</ele>
<time>2010-01-01T01:05:41.000Z</time>
</trkpt>
<trkpt lat="31.8044000" lon="35.0896700">
<ele>666.000000</ele>
<time>2010-01-01T01:05:55.000Z</time>
</trkpt>
<trkpt lat="31.8048000" lon="35.0897700">
<ele>672.000000</ele>
<time>2010-01-01T01:06:11.000Z</time>
</trkpt>
<trkpt lat="31.8048600" lon="35.0898000">
<ele>673.000061</ele>
<time>2010-01-01T01:06:14.000Z</time>
</trkpt>
<trkpt lat="31.8052200" lon="35.0902100">
<ele>675.000000</ele>
<time>2010-01-01T01:06:34.000Z</time>
</trkpt>
<trkpt lat="31.8052900" lon="35.0902600">
<ele>675.999939</ele>
<time>2010-01-01T01:06:37.000Z</time>
</trkpt>
<trkpt lat="31.8053800" lon="35.0903000">
<ele>677.000000</ele>
<time>2010-01-01T01:06:41.000Z</time>
</trkpt>
<trkpt lat="31.8055800" lon="35.0903000">
<ele>678.999939</ele>
<time>2010-01-01T01:06:49.000Z</time>
</trkpt>
<trkpt lat="31.8060000" lon="35.0902400">
<ele>684.000000</ele>
<time>2010-01-01T01:07:06.000Z</time>
</trkpt>
<trkpt lat="31.8058600" lon="35.0906300">
<ele>685.000000</ele>
<time>2010-01-01T01:07:21.000Z</time>
</trkpt>
<trkpt lat="31.8053600" lon="35.0917000">
<ele>687.000000</ele>
<time>2010-01-01T01:08:02.000Z</time>
</trkpt>
<trkpt lat="31.8052300" lon="35.0919300">
<ele>689.000000</ele>
<time>2010-01-01T01:08:12.000Z</time>
</trkpt>
<trkpt lat="31.8050000" lon="35.0922500">
<ele>689.000000</ele>
<time>2010-01-01T01:08:26.000Z</time>
</trkpt>
<trkpt lat="31.8044600" lon="35.0929100">
<ele>689.000000</ele>
<time>2010-01-01T01:08:57.000Z</time>
</trkpt>
<trkpt lat="31.8043500" lon="35.0929700">
<ele>690.000000</ele>
<time>2010-01-01T01:09:02.000Z</time>
</trkpt>
<trkpt lat="31.8041800" lon="35.0929700">
<ele>690.000000</ele>
<time>2010-01-01T01:09:09.000Z</time>
</trkpt>
<trkpt lat="31.8040700" lon="35.0929500">
<ele>690.000000</ele>
<time>2010-01-01T01:09:13.000Z</time>
</trkpt>
<trkpt lat="31.8039600" lon="35.0930000">
<ele>690.000000</ele>
<time>2010-01-01T01:09:18.000Z</time>
</trkpt>
<trkpt lat="31.8038900" lon="35.0931100">
<ele>691.000000</ele>
<time>2010-01-01T01:09:22.000Z</time>
</trkpt>
<trkpt lat="31.8038800" lon="35.0931800">
<ele>691.000000</ele>
<time>2010-01-01T01:09:25.000Z</time>
</trkpt>
<trkpt lat="31.8037300" lon="35.0931600">
<ele>691.000000</ele>
<time>2010-01-01T01:09:31.000Z</time>
</trkpt>
<trkpt lat="31.8036100" lon="35.0930600">
<ele>691.000000</ele>
<time>2010-01-01T01:09:37.000Z</time>
</trkpt>
<trkpt lat="31.8034600" lon="35.0929100">
<ele>690.000000</ele>
<time>2010-01-01T01:09:45.000Z</time>
</trkpt>
<trkpt lat="31.8032500" lon="35.0923700">
<ele>685.000000</ele>
<time>2010-01-01T01:10:05.000Z</time>
</trkpt>
<trkpt lat="31.8029700" lon="35.0921600">
<ele>683.000000</ele>
<time>2010-01-01T01:10:18.000Z</time>
</trkpt>
<trkpt lat="31.8024000" lon="35.0920800">
<ele>680.000000</ele>
<time>2010-01-01T01:10:41.000Z</time>
</trkpt>
<trkpt lat="31.8022100" lon="35.0919000">
<ele>678.000000</ele>
<time>2010-01-01T01:10:51.000Z</time>
</trkpt>
<trkpt lat="31.8022000" lon="35.0919000">
<ele>678.000000</ele>
<time>2010-01-01T01:10:51.000Z</time>
</trkpt>
<trkpt lat="31.8018800" lon="35.0915900">
<ele>673.000061</ele>
<time>2010-01-01T01:11:08.000Z</time>
</trkpt>
<trkpt lat="31.8015100" lon="35.0915000">
<ele>669.000000</ele>
<time>2010-01-01T01:11:23.000Z</time>
</trkpt>
<trkpt lat="31.8014000" lon="35.0915600">
<ele>669.000000</ele>
<time>2010-01-01T01:11:28.000Z</time>
</trkpt>
<trkpt lat="31.8012800" lon="35.0916800">
<ele>670.000061</ele>
<time>2010-01-01T01:11:34.000Z</time>
</trkpt>
<trkpt lat="31.8011900" lon="35.0918100">
<ele>671.000000</ele>
<time>2010-01-01T01:11:40.000Z</time>
</trkpt>
<trkpt lat="31.8011300" lon="35.0919400">
<ele>672.000000</ele>
<time>2010-01-01T01:11:45.000Z</time>
</trkpt>
<trkpt lat="31.8010900" lon="35.0922000">
<ele>673.000061</ele>
<time>2010-01-01T01:11:54.000Z</time>
</trkpt>
<trkpt lat="31.8010700" lon="35.0935000">
<ele>678.999939</ele>
<time>2010-01-01T01:12:38.000Z</time>
</trkpt>
<trkpt lat="31.8011100" lon="35.0950500">
<ele>681.000000</ele>
<time>2010-01-01T01:13:31.000Z</time>
</trkpt>
<trkpt lat="31.8014800" lon="35.1012200">
<ele>681.000000</ele>
<time>2010-01-01T01:17:01.000Z</time>
</trkpt>
<trkpt lat="31.8015100" lon="35.1013900">
<ele>682.000000</ele>
<time>2010-01-01T01:17:07.000Z</time>
</trkpt>
<trkpt lat="31.8015700" lon="35.1016200">
<ele>684.000000</ele>
<time>2010-01-01T01:17:15.000Z</time>
</trkpt>
<trkpt lat="31.8016000" lon="35.1019200">
<ele>688.000000</ele>
<time>2010-01-01T01:17:26.000Z</time>
</trkpt>
<trkpt lat="31.8015800" lon="35.1024200">
<ele>693.000000</ele>
<time>2010-01-01T01:17:43.000Z</time>
</trkpt>
<trkpt lat="31.8009500" lon="35.1021900">
<ele>689.000000</ele>
<time>2010-01-01T01:18:09.000Z</time>
</trkpt>
<trkpt lat="31.8007200" lon="35.1020600">
<ele>687.000000</ele>
<time>2010-01-01T01:18:19.000Z</time>
</trkpt>
<trkpt lat="31.8006400" lon="35.1019700">
<ele>685.000000</ele>
<time>2010-01-01T01:18:24.000Z</time>
</trkpt>
<trkpt lat="31.8002500" lon="35.1018800">
<ele>686.000000</ele>
<time>2010-01-01T01:18:40.000Z</time>
</trkpt>
<trkpt lat="31.8001500" lon="35.1018300">
<ele>685.000000</ele>
<time>2010-01-01T01:18:44.000Z</time>
</trkpt>
<trkpt lat="31.7998700" lon="35.1017500">
<ele>685.000000</ele>
<time>2010-01-01T01:18:56.000Z</time>
</trkpt>
<trkpt lat="31.7995500" lon="35.1015600">
<ele>682.000000</ele>
<time>2010-01-01T01:19:10.000Z</time>
</trkpt>
<trkpt lat="31.7994400" lon="35.1015200">
<ele>681.000000</ele>
<time>2010-01-01T01:19:15.000Z</time>
</trkpt>
<trkpt lat="31.7993900" lon="35.1014600">
<ele>680.000000</ele>
<time>2010-01-01T01:19:17.000Z</time>
</trkpt>
<trkpt lat="31.7994000" lon="35.1014200">
<ele>678.999939</ele>
<time>2010-01-01T01:19:19.000Z</time>
</trkpt>
<trkpt lat="31.7994400" lon="35.1014200">
<ele>678.999939</ele>
<time>2010-01-01T01:19:20.000Z</time>
</trkpt>
<trkpt lat="31.7996000" lon="35.1014900">
<ele>678.999939</ele>
<time>2010-01-01T01:19:27.000Z</time>
</trkpt>
<trkpt lat="31.8002900" lon="35.1015400">
<ele>675.999939</ele>
<time>2010-01-01T01:19:55.000Z</time>
</trkpt>
<trkpt lat="31.8006400" lon="35.1014700">
<ele>675.999939</ele>
<time>2010-01-01T01:20:09.000Z</time>
</trkpt>
<trkpt lat="31.8006700" lon="35.1014500">
<ele>675.999939</ele>
<time>2010-01-01T01:20:11.000Z</time>
</trkpt>
<trkpt lat="31.8007100" lon="35.1013800">
<ele>675.999939</ele>
<time>2010-01-01T01:20:13.000Z</time>
</trkpt>
<trkpt lat="31.8007000" lon="35.1013400">
<ele>675.000000</ele>
<time>2010-01-01T01:20:15.000Z</time>
</trkpt>
<trkpt lat="31.8006500" lon="35.1012900">
<ele>673.000061</ele>
<time>2010-01-01T01:20:17.000Z</time>
</trkpt>
<trkpt lat="31.8005800" lon="35.1012600">
<ele>671.000000</ele>
<time>2010-01-01T01:20:20.000Z</time>
</trkpt>
<trkpt lat="31.7999700" lon="35.1011500">
<ele>668.000000</ele>
<time>2010-01-01T01:20:45.000Z</time>
</trkpt>
<trkpt lat="31.7998000" lon="35.1010900">
<ele>667.000061</ele>
<time>2010-01-01T01:20:52.000Z</time>
</trkpt>
<trkpt lat="31.7994900" lon="35.1008800">
<ele>666.000000</ele>
<time>2010-01-01T01:21:07.000Z</time>
</trkpt>
<trkpt lat="31.7994400" lon="35.1007700">
<ele>665.000000</ele>
<time>2010-01-01T01:21:11.000Z</time>
</trkpt>
<trkpt lat="31.7996400" lon="35.1008300">
<ele>663.000000</ele>
<time>2010-01-01T01:21:19.000Z</time>
</trkpt>
<trkpt lat="31.8000600" lon="35.1009200">
<ele>662.000000</ele>
<time>2010-01-01T01:21:36.000Z</time>
</trkpt>
<trkpt lat="31.8003800" lon="35.1010200">
<ele>665.000000</ele>
<time>2010-01-01T01:21:49.000Z</time>
</trkpt>
<trkpt lat="31.8004500" lon="35.1010200">
<ele>665.000000</ele>
<time>2010-01-01T01:21:52.000Z</time>
</trkpt>
<trkpt lat="31.8004800" lon="35.1010100">
<ele>665.000000</ele>
<time>2010-01-01T01:21:53.000Z</time>
</trkpt>
<trkpt lat="31.8005000" lon="35.1009700">
<ele>664.000000</ele>
<time>2010-01-01T01:21:55.000Z</time>
</trkpt>
<trkpt lat="31.8004700" lon="35.1008900">
<ele>663.000000</ele>
<time>2010-01-01T01:21:58.000Z</time>
</trkpt>
<trkpt lat="31.8004200" lon="35.1008300">
<ele>661.000000</ele>
<time>2010-01-01T01:22:01.000Z</time>
</trkpt>
<trkpt lat="31.8003000" lon="35.1007300">
<ele>657.000000</ele>
<time>2010-01-01T01:22:07.000Z</time>
</trkpt>
<trkpt lat="31.8001100" lon="35.1006300">
<ele>653.999939</ele>
<time>2010-01-01T01:22:15.000Z</time>
</trkpt>
<trkpt lat="31.8000900" lon="35.1005900">
<ele>653.000000</ele>
<time>2010-01-01T01:22:17.000Z</time>
</trkpt>
<trkpt lat="31.8001000" lon="35.1005600">
<ele>653.000000</ele>
<time>2010-01-01T01:22:18.000Z</time>
</trkpt>
<trkpt lat="31.8002700" lon="35.1005500">
<ele>652.000000</ele>
<time>2010-01-01T01:22:25.000Z</time>
</trkpt>
<trkpt lat="31.8003300" lon="35.1005000">
<ele>653.000000</ele>
<time>2010-01-01T01:22:27.000Z</time>
</trkpt>
<trkpt lat="31.8003300" lon="35.1004500">
<ele>653.000000</ele>
<time>2010-01-01T01:22:29.000Z</time>
</trkpt>
<trkpt lat="31.8002700" lon="35.1003500">
<ele>649.000000</ele>
<time>2010-01-01T01:22:33.000Z</time>
</trkpt>
<trkpt lat="31.8001400" lon="35.1002700">
<ele>647.000000</ele>
<time>2010-01-01T01:22:39.000Z</time>
</trkpt>
<trkpt lat="31.8000600" lon="35.1001900">
<ele>646.000000</ele>
<time>2010-01-01T01:22:43.000Z</time>
</trkpt>
<trkpt lat="31.7999700" lon="35.0999600">
<ele>642.000061</ele>
<time>2010-01-01T01:22:52.000Z</time>
</trkpt>
<trkpt lat="31.7999000" lon="35.0996700">
<ele>641.000000</ele>
<time>2010-01-01T01:23:02.000Z</time>
</trkpt>
<trkpt lat="31.7999200" lon="35.0994200">
<ele>639.000000</ele>
<time>2010-01-01T01:23:11.000Z</time>
</trkpt>
<trkpt lat="31.7999100" lon="35.0993300">
<ele>638.000000</ele>
<time>2010-01-01T01:23:14.000Z</time>
</trkpt>
<trkpt lat="31.7998500" lon="35.0991800">
<ele>637.000000</ele>
<time>2010-01-01T01:23:20.000Z</time>
</trkpt>
<trkpt lat="31.7998400" lon="35.0988400">
<ele>634.000000</ele>
<time>2010-01-01T01:23:31.000Z</time>
</trkpt>
<trkpt lat="31.7996600" lon="35.0983700">
<ele>630.000000</ele>
<time>2010-01-01T01:23:49.000Z</time>
</trkpt>
<trkpt lat="31.7996200" lon="35.0981100">
<ele>628.999939</ele>
<time>2010-01-01T01:23:58.000Z</time>
</trkpt>
<trkpt lat="31.7995300" lon="35.0978400">
<ele>624.000000</ele>
<time>2010-01-01T01:24:08.000Z</time>
</trkpt>
<trkpt lat="31.7992600" lon="35.0972900">
<ele>616.000000</ele>
<time>2010-01-01T01:24:29.000Z</time>
</trkpt>
<trkpt lat="31.7992100" lon="35.0972200">
<ele>614.000000</ele>
<time>2010-01-01T01:24:32.000Z</time>
</trkpt>
<trkpt lat="31.7992000" lon="35.0972200">
<ele>614.000000</ele>
<time>2010-01-01T01:24:33.000Z</time>
</trkpt>
<trkpt lat="31.7989600" lon="35.0968100">
<ele>605.000000</ele>
<time>2010-01-01T01:24:50.000Z</time>
</trkpt>
<trkpt lat="31.7989400" lon="35.0966500">
<ele>603.000000</ele>
<time>2010-01-01T01:24:55.000Z</time>
</trkpt>
<trkpt lat="31.7989100" lon="35.0965700">
<ele>602.000000</ele>
<time>2010-01-01T01:24:58.000Z</time>
</trkpt>
<trkpt lat="31.7988400" lon="35.0964700">
<ele>600.000000</ele>
<time>2010-01-01T01:25:02.000Z</time>
</trkpt>
<trkpt lat="31.7987600" lon="35.0963900">
<ele>598.000000</ele>
<time>2010-01-01T01:25:07.000Z</time>
</trkpt>
<trkpt lat="31.7986200" lon="35.0961400">
<ele>592.000000</ele>
<time>2010-01-01T01:25:17.000Z</time>
</trkpt>
<trkpt lat="31.7985000" lon="35.0959800">
<ele>590.000000</ele>
<time>2010-01-01T01:25:24.000Z</time>
</trkpt>
<trkpt lat="31.7984700" lon="35.0959700">
<ele>590.000000</ele>
<time>2010-01-01T01:25:25.000Z</time>
</trkpt>
<trkpt lat="31.7985600" lon="35.0958900">
<ele>591.000000</ele>
<time>2010-01-01T01:25:30.000Z</time>
</trkpt>
<trkpt lat="31.7986000" lon="35.0958300">
<ele>591.000000</ele>
<time>2010-01-01T01:25:32.000Z</time>
</trkpt>
<trkpt lat="31.7986100" lon="35.0957400">
<ele>592.000000</ele>
<time>2010-01-01T01:25:36.000Z</time>
</trkpt>
<trkpt lat="31.7985800" lon="35.0954500">
<ele>592.000000</ele>
<time>2010-01-01T01:25:46.000Z</time>
</trkpt>
<trkpt lat="31.7983600" lon="35.0946600">
<ele>592.000000</ele>
<time>2010-01-01T01:26:14.000Z</time>
</trkpt>
<trkpt lat="31.7977700" lon="35.0930800">
<ele>591.000000</ele>
<time>2010-01-01T01:27:13.000Z</time>
</trkpt>
<trkpt lat="31.7977200" lon="35.0927500">
<ele>592.000000</ele>
<time>2010-01-01T01:27:24.000Z</time>
</trkpt>
<trkpt lat="31.7976300" lon="35.0925400">
<ele>590.000000</ele>
<time>2010-01-01T01:27:32.000Z</time>
</trkpt>
<trkpt lat="31.7975600" lon="35.0919300">
<ele>589.000000</ele>
<time>2010-01-01T01:27:53.000Z</time>
</trkpt>
<trkpt lat="31.7975500" lon="35.0919400">
<ele>589.000000</ele>
<time>2010-01-01T01:27:53.000Z</time>
</trkpt>
<trkpt lat="31.7975600" lon="35.0919300">
<ele>589.000000</ele>
<time>2010-01-01T01:27:54.000Z</time>
</trkpt>
<trkpt lat="31.7975300" lon="35.0916500">
<ele>587.000000</ele>
<time>2010-01-01T01:28:04.000Z</time>
</trkpt>
<trkpt lat="31.7975600" lon="35.0913300">
<ele>588.000000</ele>
<time>2010-01-01T01:28:14.000Z</time>
</trkpt>
<trkpt lat="31.7975500" lon="35.0912500">
<ele>588.000000</ele>
<time>2010-01-01T01:28:17.000Z</time>
</trkpt>
<trkpt lat="31.7974800" lon="35.0910500">
<ele>587.000000</ele>
<time>2010-01-01T01:28:25.000Z</time>
</trkpt>
<trkpt lat="31.7973300" lon="35.0907100">
<ele>587.000000</ele>
<time>2010-01-01T01:28:38.000Z</time>
</trkpt>
<trkpt lat="31.7972800" lon="35.0904800">
<ele>588.000000</ele>
<time>2010-01-01T01:28:46.000Z</time>
</trkpt>
<trkpt lat="31.7972300" lon="35.0903700">
<ele>587.000000</ele>
<time>2010-01-01T01:28:50.000Z</time>
</trkpt>
<trkpt lat="31.7970500" lon="35.0901400">
<ele>585.000000</ele>
<time>2010-01-01T01:29:01.000Z</time>
</trkpt>
<trkpt lat="31.7969500" lon="35.0899200">
<ele>583.000000</ele>
<time>2010-01-01T01:29:09.000Z</time>
</trkpt>
<trkpt lat="31.7967900" lon="35.0896800">
<ele>579.000000</ele>
<time>2010-01-01T01:29:19.000Z</time>
</trkpt>
<trkpt lat="31.7966100" lon="35.0890900">
<ele>576.000000</ele>
<time>2010-01-01T01:29:41.000Z</time>
</trkpt>
<trkpt lat="31.7965300" lon="35.0883700">
<ele>575.000000</ele>
<time>2010-01-01T01:30:05.000Z</time>
</trkpt>
<trkpt lat="31.7965300" lon="35.0881600">
<ele>575.000000</ele>
<time>2010-01-01T01:30:13.000Z</time>
</trkpt>
<trkpt lat="31.7965000" lon="35.0879000">
<ele>572.000000</ele>
<time>2010-01-01T01:30:22.000Z</time>
</trkpt>
<trkpt lat="31.7965500" lon="35.0876600">
<ele>571.000000</ele>
<time>2010-01-01T01:30:30.000Z</time>
</trkpt>
<trkpt lat="31.7966000" lon="35.0870600">
<ele>568.000000</ele>
<time>2010-01-01T01:30:50.000Z</time>
</trkpt>
<trkpt lat="31.7965300" lon="35.0864700">
<ele>560.000000</ele>
<time>2010-01-01T01:31:11.000Z</time>
</trkpt>
<trkpt lat="31.7965200" lon="35.0862500">
<ele>558.000000</ele>
<time>2010-01-01T01:31:18.000Z</time>
</trkpt>
<trkpt lat="31.7964800" lon="35.0860600">
<ele>556.000000</ele>
<time>2010-01-01T01:31:25.000Z</time>
</trkpt>
<trkpt lat="31.7964700" lon="35.0858800">
<ele>554.000000</ele>
<time>2010-01-01T01:31:31.000Z</time>
</trkpt>
<trkpt lat="31.7965400" lon="35.0856500">
<ele>554.000000</ele>
<time>2010-01-01T01:31:39.000Z</time>
</trkpt>
<trkpt lat="31.7965700" lon="35.0854500">
<ele>553.000000</ele>
<time>2010-01-01T01:31:46.000Z</time>
</trkpt>
<trkpt lat="31.7966700" lon="35.0851200">
<ele>552.000000</ele>
<time>2010-01-01T01:31:58.000Z</time>
</trkpt>
<trkpt lat="31.7966700" lon="35.0849100">
<ele>549.000000</ele>
<time>2010-01-01T01:32:05.000Z</time>
</trkpt>
<trkpt lat="31.7966400" lon="35.0848800">
<ele>548.000000</ele>
<time>2010-01-01T01:32:07.000Z</time>
</trkpt>
<trkpt lat="31.7965700" lon="35.0849300">
<ele>548.000000</ele>
<time>2010-01-01T01:32:10.000Z</time>
</trkpt>
<trkpt lat="31.7964100" lon="35.0852200">
<ele>549.000000</ele>
<time>2010-01-01T01:32:22.000Z</time>
</trkpt>
<trkpt lat="31.7960400" lon="35.0856400">
<ele>544.000000</ele>
<time>2010-01-01T01:32:43.000Z</time>
</trkpt>
<trkpt lat="31.7957000" lon="35.0861600">
<ele>542.000000</ele>
<time>2010-01-01T01:33:05.000Z</time>
</trkpt>
<trkpt lat="31.7956000" lon="35.0863000">
<ele>541.000000</ele>
<time>2010-01-01T01:33:11.000Z</time>
</trkpt>
<trkpt lat="31.7953200" lon="35.0866600">
<ele>539.000000</ele>
<time>2010-01-01T01:33:28.000Z</time>
</trkpt>
<trkpt lat="31.7952700" lon="35.0862500">
<ele>534.000000</ele>
<time>2010-01-01T01:33:42.000Z</time>
</trkpt>
<trkpt lat="31.7951500" lon="35.0860000">
<ele>530.000000</ele>
<time>2010-01-01T01:33:52.000Z</time>
</trkpt>
<trkpt lat="31.7951100" lon="35.0856700">
<ele>527.000000</ele>
<time>2010-01-01T01:34:03.000Z</time>
</trkpt>
<trkpt lat="31.7950900" lon="35.0854100">
<ele>524.000000</ele>
<time>2010-01-01T01:34:12.000Z</time>
</trkpt>
<trkpt lat="31.7949000" lon="35.0858800">
<ele>525.000000</ele>
<time>2010-01-01T01:34:29.000Z</time>
</trkpt>
<trkpt lat="31.7948400" lon="35.0859700">
<ele>525.000000</ele>
<time>2010-01-01T01:34:33.000Z</time>
</trkpt>
<trkpt lat="31.7946000" lon="35.0859800">
<ele>524.000000</ele>
<time>2010-01-01T01:34:43.000Z</time>
</trkpt>
<trkpt lat="31.7944000" lon="35.0862300">
<ele>525.000000</ele>
<time>2010-01-01T01:34:55.000Z</time>
</trkpt>
<trkpt lat="31.7943200" lon="35.0863700">
<ele>525.000000</ele>
<time>2010-01-01T01:35:00.000Z</time>
</trkpt>
<trkpt lat="31.7942100" lon="35.0866900">
<ele>525.000000</ele>
<time>2010-01-01T01:35:12.000Z</time>
</trkpt>
<trkpt lat="31.7940900" lon="35.0871300">
<ele>528.000000</ele>
<time>2010-01-01T01:35:28.000Z</time>
</trkpt>
<trkpt lat="31.7939200" lon="35.0880900">
<ele>531.000000</ele>
<time>2010-01-01T01:36:01.000Z</time>
</trkpt>
<trkpt lat="31.7938300" lon="35.0882800">
<ele>533.000000</ele>
<time>2010-01-01T01:36:09.000Z</time>
</trkpt>
<trkpt lat="31.7937700" lon="35.0883200">
<ele>535.000000</ele>
<time>2010-01-01T01:36:11.000Z</time>
</trkpt>
<trkpt lat="31.7937400" lon="35.0883200">
<ele>535.000000</ele>
<time>2010-01-01T01:36:13.000Z</time>
</trkpt>
<trkpt lat="31.7937000" lon="35.0882800">
<ele>536.000000</ele>
<time>2010-01-01T01:36:15.000Z</time>
</trkpt>
<trkpt lat="31.7936600" lon="35.0881300">
<ele>538.000000</ele>
<time>2010-01-01T01:36:20.000Z</time>
</trkpt>
<trkpt lat="31.7936300" lon="35.0874100">
<ele>541.000000</ele>
<time>2010-01-01T01:36:45.000Z</time>
</trkpt>
<trkpt lat="31.7935400" lon="35.0864400">
<ele>543.000000</ele>
<time>2010-01-01T01:37:18.000Z</time>
</trkpt>
<trkpt lat="31.7932800" lon="35.0851100">
<ele>552.000000</ele>
<time>2010-01-01T01:38:04.000Z</time>
</trkpt>
<trkpt lat="31.7932200" lon="35.0848700">
<ele>552.000000</ele>
<time>2010-01-01T01:38:13.000Z</time>
</trkpt>
<trkpt lat="31.7931100" lon="35.0846500">
<ele>552.000000</ele>
<time>2010-01-01T01:38:21.000Z</time>
</trkpt>
<trkpt lat="31.7929700" lon="35.0845000">
<ele>553.000000</ele>
<time>2010-01-01T01:38:29.000Z</time>
</trkpt>
<trkpt lat="31.7925800" lon="35.0841500">
<ele>555.000000</ele>
<time>2010-01-01T01:38:49.000Z</time>
</trkpt>
<trkpt lat="31.7925700" lon="35.0841500">
<ele>555.000000</ele>
<time>2010-01-01T01:38:49.000Z</time>
</trkpt>
<trkpt lat="31.7920400" lon="35.0836300">
<ele>563.000000</ele>
<time>2010-01-01T01:39:17.000Z</time>
</trkpt>
<trkpt lat="31.7909400" lon="35.0824000">
<ele>575.000000</ele>
<time>2010-01-01T01:40:17.000Z</time>
</trkpt>
<trkpt lat="31.7906500" lon="35.0821400">
<ele>578.000000</ele>
<time>2010-01-01T01:40:32.000Z</time>
</trkpt>
<trkpt lat="31.7899400" lon="35.0816500">
<ele>582.000000</ele>
<time>2010-01-01T01:41:05.000Z</time>
</trkpt>
<trkpt lat="31.7898000" lon="35.0815900">
<ele>581.000000</ele>
<time>2010-01-01T01:41:11.000Z</time>
</trkpt>
<trkpt lat="31.7895500" lon="35.0815800">
<ele>583.000000</ele>
<time>2010-01-01T01:41:21.000Z</time>
</trkpt>
<trkpt lat="31.7891200" lon="35.0816100">
<ele>589.000000</ele>
<time>2010-01-01T01:41:38.000Z</time>
</trkpt>
<trkpt lat="31.7889700" lon="35.0816000">
<ele>590.000000</ele>
<time>2010-01-01T01:41:44.000Z</time>
</trkpt>
<trkpt lat="31.7888000" lon="35.0815400">
<ele>590.000000</ele>
<time>2010-01-01T01:41:51.000Z</time>
</trkpt>
<trkpt lat="31.7880100" lon="35.0811200">
<ele>586.000000</ele>
<time>2010-01-01T01:42:26.000Z</time>
</trkpt>
<trkpt lat="31.7878600" lon="35.0810000">
<ele>587.000000</ele>
<time>2010-01-01T01:42:33.000Z</time>
</trkpt>
<trkpt lat="31.7875400" lon="35.0807200">
<ele>585.000000</ele>
<time>2010-01-01T01:42:49.000Z</time>
</trkpt>
<trkpt lat="31.7870100" lon="35.0802800">
<ele>588.000000</ele>
<time>2010-01-01T01:43:15.000Z</time>
</trkpt>
<trkpt lat="31.7867400" lon="35.0800000">
<ele>588.000000</ele>
<time>2010-01-01T01:43:30.000Z</time>
</trkpt>
<trkpt lat="31.7865800" lon="35.0797700">
<ele>587.000000</ele>
<time>2010-01-01T01:43:40.000Z</time>
</trkpt>
<trkpt lat="31.7860700" lon="35.0788900">
<ele>581.000000</ele>
<time>2010-01-01T01:44:16.000Z</time>
</trkpt>
<trkpt lat="31.7858900" lon="35.0786200">
<ele>584.000000</ele>
<time>2010-01-01T01:44:28.000Z</time>
</trkpt>
<trkpt lat="31.7857800" lon="35.0785100">
<ele>586.000000</ele>
<time>2010-01-01T01:44:33.000Z</time>
</trkpt>
<trkpt lat="31.7857100" lon="35.0785100">
<ele>587.000000</ele>
<time>2010-01-01T01:44:36.000Z</time>
</trkpt>
<trkpt lat="31.7856800" lon="35.0785300">
<ele>587.000000</ele>
<time>2010-01-01T01:44:38.000Z</time>
</trkpt>
<trkpt lat="31.7855800" lon="35.0786400">
<ele>587.000000</ele>
<time>2010-01-01T01:44:43.000Z</time>
</trkpt>
<trkpt lat="31.7851700" lon="35.0795300">
<ele>580.000000</ele>
<time>2010-01-01T01:45:17.000Z</time>
</trkpt>
<trkpt lat="31.7844300" lon="35.0810600">
<ele>570.000000</ele>
<time>2010-01-01T01:46:17.000Z</time>
</trkpt>
<trkpt lat="31.7841800" lon="35.0814800">
<ele>570.000000</ele>
<time>2010-01-01T01:46:35.000Z</time>
</trkpt>
<trkpt lat="31.7838600" lon="35.0819400">
<ele>567.000000</ele>
<time>2010-01-01T01:46:55.000Z</time>
</trkpt>
<trkpt lat="31.7836400" lon="35.0823300">
<ele>568.000000</ele>
<time>2010-01-01T01:47:11.000Z</time>
</trkpt>
<trkpt lat="31.7832000" lon="35.0830100">
<ele>569.000000</ele>
<time>2010-01-01T01:47:40.000Z</time>
</trkpt>
<trkpt lat="31.7830800" lon="35.0832300">
<ele>570.000000</ele>
<time>2010-01-01T01:47:49.000Z</time>
</trkpt>
<trkpt lat="31.7828600" lon="35.0837100">
<ele>570.000000</ele>
<time>2010-01-01T01:48:07.000Z</time>
</trkpt>
<trkpt lat="31.7826500" lon="35.0842500">
<ele>571.000000</ele>
<time>2010-01-01T01:48:28.000Z</time>
</trkpt>
<trkpt lat="31.7824700" lon="35.0850400">
<ele>576.000000</ele>
<time>2010-01-01T01:48:56.000Z</time>
</trkpt>
<trkpt lat="31.7824300" lon="35.0851100">
<ele>576.000000</ele>
<time>2010-01-01T01:48:58.000Z</time>
</trkpt>
<trkpt lat="31.7823000" lon="35.0852300">
<ele>577.000000</ele>
<time>2010-01-01T01:49:05.000Z</time>
</trkpt>
<trkpt lat="31.7822600" lon="35.0849500">
<ele>576.000000</ele>
<time>2010-01-01T01:49:15.000Z</time>
</trkpt>
<trkpt lat="31.7822500" lon="35.0848500">
<ele>576.000000</ele>
<time>2010-01-01T01:49:18.000Z</time>
</trkpt>
<trkpt lat="31.7822700" lon="35.0846700">
<ele>576.000000</ele>
<time>2010-01-01T01:49:24.000Z</time>
</trkpt>
<trkpt lat="31.7823300" lon="35.0844500">
<ele>573.000000</ele>
<time>2010-01-01T01:49:32.000Z</time>
</trkpt>
<trkpt lat="31.7830000" lon="35.0825300">
<ele>566.000000</ele>
<time>2010-01-01T01:50:43.000Z</time>
</trkpt>
<trkpt lat="31.7834300" lon="35.0812100">
<ele>563.000000</ele>
<time>2010-01-01T01:51:31.000Z</time>
</trkpt>
<trkpt lat="31.7834600" lon="35.0810500">
<ele>565.000000</ele>
<time>2010-01-01T01:51:36.000Z</time>
</trkpt>
<trkpt lat="31.7835100" lon="35.0805800">
<ele>567.000000</ele>
<time>2010-01-01T01:51:53.000Z</time>
</trkpt>
<trkpt lat="31.7835300" lon="35.0804300">
<ele>565.000000</ele>
<time>2010-01-01T01:51:58.000Z</time>
</trkpt>
<trkpt lat="31.7835200" lon="35.0801100">
<ele>563.000000</ele>
<time>2010-01-01T01:52:09.000Z</time>
</trkpt>
<trkpt lat="31.7834700" lon="35.0799000">
<ele>565.000000</ele>
<time>2010-01-01T01:52:16.000Z</time>
</trkpt>
<trkpt lat="31.7833900" lon="35.0797600">
<ele>568.000000</ele>
<time>2010-01-01T01:52:22.000Z</time>
</trkpt>
<trkpt lat="31.7832600" lon="35.0796200">
<ele>570.000000</ele>
<time>2010-01-01T01:52:29.000Z</time>
</trkpt>
<trkpt lat="31.7830200" lon="35.0794800">
<ele>571.000000</ele>
<time>2010-01-01T01:52:40.000Z</time>
</trkpt>
<trkpt lat="31.7827200" lon="35.0793500">
<ele>573.000000</ele>
<time>2010-01-01T01:52:52.000Z</time>
</trkpt>
<trkpt lat="31.7825700" lon="35.0792600">
<ele>574.000000</ele>
<time>2010-01-01T01:52:59.000Z</time>
</trkpt>
<trkpt lat="31.7824800" lon="35.0791800">
<ele>575.000000</ele>
<time>2010-01-01T01:53:04.000Z</time>
</trkpt>
<trkpt lat="31.7823000" lon="35.0789500">
<ele>577.000000</ele>
<time>2010-01-01T01:53:14.000Z</time>
</trkpt>
<trkpt lat="31.7819500" lon="35.0783700">
<ele>580.000000</ele>
<time>2010-01-01T01:53:38.000Z</time>
</trkpt>
<trkpt lat="31.7818000" lon="35.0781600">
<ele>577.000000</ele>
<time>2010-01-01T01:53:48.000Z</time>
</trkpt>
<trkpt lat="31.7816700" lon="35.0780400">
<ele>576.000000</ele>
<time>2010-01-01T01:53:54.000Z</time>
</trkpt>
<trkpt lat="31.7814400" lon="35.0779100">
<ele>576.000000</ele>
<time>2010-01-01T01:54:05.000Z</time>
</trkpt>
<trkpt lat="31.7812100" lon="35.0778500">
<ele>579.000000</ele>
<time>2010-01-01T01:54:14.000Z</time>
</trkpt>
<trkpt lat="31.7810400" lon="35.0778500">
<ele>581.000000</ele>
<time>2010-01-01T01:54:21.000Z</time>
</trkpt>
<trkpt lat="31.7805200" lon="35.0779300">
<ele>586.000000</ele>
<time>2010-01-01T01:54:42.000Z</time>
</trkpt>
<trkpt lat="31.7803000" lon="35.0779900">
<ele>586.000000</ele>
<time>2010-01-01T01:54:51.000Z</time>
</trkpt>
<trkpt lat="31.7801400" lon="35.0780600">
<ele>586.000000</ele>
<time>2010-01-01T01:54:58.000Z</time>
</trkpt>
<trkpt lat="31.7793600" lon="35.0785500">
<ele>592.000000</ele>
<time>2010-01-01T01:55:33.000Z</time>
</trkpt>
<trkpt lat="31.7792300" lon="35.0786000">
<ele>593.000000</ele>
<time>2010-01-01T01:55:39.000Z</time>
</trkpt>
<trkpt lat="31.7791800" lon="35.0786000">
<ele>593.000000</ele>
<time>2010-01-01T01:55:41.000Z</time>
</trkpt>
<trkpt lat="31.7791000" lon="35.0785400">
<ele>594.000000</ele>
<time>2010-01-01T01:55:44.000Z</time>
</trkpt>
<trkpt lat="31.7790800" lon="35.0784700">
<ele>594.000000</ele>
<time>2010-01-01T01:55:47.000Z</time>
</trkpt>
<trkpt lat="31.7790800" lon="35.0783600">
<ele>593.000000</ele>
<time>2010-01-01T01:55:51.000Z</time>
</trkpt>
<trkpt lat="31.7791500" lon="35.0778900">
<ele>587.000000</ele>
<time>2010-01-01T01:56:07.000Z</time>
</trkpt>
<trkpt lat="31.7791400" lon="35.0775900">
<ele>584.000000</ele>
<time>2010-01-01T01:56:17.000Z</time>
</trkpt>
<trkpt lat="31.7790900" lon="35.0773400">
<ele>584.000000</ele>
<time>2010-01-01T01:56:26.000Z</time>
</trkpt>
<trkpt lat="31.7789800" lon="35.0770600">
<ele>586.000000</ele>
<time>2010-01-01T01:56:36.000Z</time>
</trkpt>
<trkpt lat="31.7789800" lon="35.0770500">
<ele>586.000000</ele>
<time>2010-01-01T01:56:37.000Z</time>
</trkpt>
<trkpt lat="31.7788800" lon="35.0768000">
<ele>589.000000</ele>
<time>2010-01-01T01:56:46.000Z</time>
</trkpt>
<trkpt lat="31.7788500" lon="35.0766800">
<ele>591.000000</ele>
<time>2010-01-01T01:56:50.000Z</time>
</trkpt>
<trkpt lat="31.7788500" lon="35.0765400">
<ele>592.000000</ele>
<time>2010-01-01T01:56:55.000Z</time>
</trkpt>
<trkpt lat="31.7788800" lon="35.0764300">
<ele>592.000000</ele>
<time>2010-01-01T01:56:59.000Z</time>
</trkpt>
<trkpt lat="31.7789900" lon="35.0763000">
<ele>592.000000</ele>
<time>2010-01-01T01:57:05.000Z</time>
</trkpt>
<trkpt lat="31.7793500" lon="35.0759900">
<ele>591.000000</ele>
<time>2010-01-01T01:57:23.000Z</time>
</trkpt>
<trkpt lat="31.7795300" lon="35.0757700">
<ele>591.000000</ele>
<time>2010-01-01T01:57:34.000Z</time>
</trkpt>
<trkpt lat="31.7796200" lon="35.0756000">
<ele>591.000000</ele>
<time>2010-01-01T01:57:40.000Z</time>
</trkpt>
<trkpt lat="31.7797200" lon="35.0752400">
<ele>591.000000</ele>
<time>2010-01-01T01:57:53.000Z</time>
</trkpt>
<trkpt lat="31.7798000" lon="35.0747400">
<ele>598.000000</ele>
<time>2010-01-01T01:58:11.000Z</time>
</trkpt>
<trkpt lat="31.7797900" lon="35.0745000">
<ele>598.000000</ele>
<time>2010-01-01T01:58:19.000Z</time>
</trkpt>
<trkpt lat="31.7797100" lon="35.0741900">
<ele>597.000000</ele>
<time>2010-01-01T01:58:30.000Z</time>
</trkpt>
<trkpt lat="31.7793600" lon="35.0734700">
<ele>601.000000</ele>
<time>2010-01-01T01:58:58.000Z</time>
</trkpt>
<trkpt lat="31.7793300" lon="35.0733100">
<ele>600.000000</ele>
<time>2010-01-01T01:59:04.000Z</time>
</trkpt>
<trkpt lat="31.7793400" lon="35.0730400">
<ele>599.000000</ele>
<time>2010-01-01T01:59:13.000Z</time>
</trkpt>
<trkpt lat="31.7794300" lon="35.0724900">
<ele>598.000000</ele>
<time>2010-01-01T01:59:32.000Z</time>
</trkpt>
<trkpt lat="31.7794600" lon="35.0721700">
<ele>598.000000</ele>
<time>2010-01-01T01:59:43.000Z</time>
</trkpt>
<trkpt lat="31.7794200" lon="35.0715600">
<ele>603.000000</ele>
<time>2010-01-01T02:00:04.000Z</time>
</trkpt>
<trkpt lat="31.7794400" lon="35.0713000">
<ele>605.000000</ele>
<time>2010-01-01T02:00:12.000Z</time>
</trkpt>
<trkpt lat="31.7795200" lon="35.0710800">
<ele>605.000000</ele>
<time>2010-01-01T02:00:21.000Z</time>
</trkpt>
<trkpt lat="31.7800500" lon="35.0701300">
<ele>603.000000</ele>
<time>2010-01-01T02:00:59.000Z</time>
</trkpt>
<trkpt lat="31.7801300" lon="35.0699700">
<ele>603.000000</ele>
<time>2010-01-01T02:01:06.000Z</time>
</trkpt>
<trkpt lat="31.7801800" lon="35.0697900">
<ele>604.000000</ele>
<time>2010-01-01T02:01:12.000Z</time>
</trkpt>
<trkpt lat="31.7802800" lon="35.0693300">
<ele>607.000000</ele>
<time>2010-01-01T02:01:28.000Z</time>
</trkpt>
<trkpt lat="31.7803000" lon="35.0691400">
<ele>607.000000</ele>
<time>2010-01-01T02:01:35.000Z</time>
</trkpt>
<trkpt lat="31.7803500" lon="35.0687200">
<ele>607.000000</ele>
<time>2010-01-01T02:01:49.000Z</time>
</trkpt>
<trkpt lat="31.7803400" lon="35.0685100">
<ele>609.000000</ele>
<time>2010-01-01T02:01:56.000Z</time>
</trkpt>
<trkpt lat="31.7803000" lon="35.0683200">
<ele>610.000000</ele>
<time>2010-01-01T02:02:03.000Z</time>
</trkpt>
<trkpt lat="31.7801500" lon="35.0678300">
<ele>616.000000</ele>
<time>2010-01-01T02:02:21.000Z</time>
</trkpt>
<trkpt lat="31.7801300" lon="35.0676900">
<ele>618.000000</ele>
<time>2010-01-01T02:02:25.000Z</time>
</trkpt>
<trkpt lat="31.7801300" lon="35.0675800">
<ele>619.000000</ele>
<time>2010-01-01T02:02:29.000Z</time>
</trkpt>
<trkpt lat="31.7801700" lon="35.0674500">
<ele>620.000000</ele>
<time>2010-01-01T02:02:34.000Z</time>
</trkpt>
<trkpt lat="31.7802600" lon="35.0672600">
<ele>620.000000</ele>
<time>2010-01-01T02:02:41.000Z</time>
</trkpt>
<trkpt lat="31.7807800" lon="35.0665000">
<ele>619.000000</ele>
<time>2010-01-01T02:03:15.000Z</time>
</trkpt>
<trkpt lat="31.7808900" lon="35.0663100">
<ele>617.000000</ele>
<time>2010-01-01T02:03:22.000Z</time>
</trkpt>
<trkpt lat="31.7809900" lon="35.0660800">
<ele>617.000000</ele>
<time>2010-01-01T02:03:31.000Z</time>
</trkpt>
<trkpt lat="31.7810700" lon="35.0657400">
<ele>615.000000</ele>
<time>2010-01-01T02:03:43.000Z</time>
</trkpt>
<trkpt lat="31.7810800" lon="35.0655600">
<ele>614.000000</ele>
<time>2010-01-01T02:03:49.000Z</time>
</trkpt>
<trkpt lat="31.7810800" lon="35.0651000">
<ele>614.000000</ele>
<time>2010-01-01T02:04:05.000Z</time>
</trkpt>
<trkpt lat="31.7810700" lon="35.0647700">
<ele>615.000000</ele>
<time>2010-01-01T02:04:16.000Z</time>
</trkpt>
<trkpt lat="31.7810700" lon="35.0647600">
<ele>615.000000</ele>
<time>2010-01-01T02:04:17.000Z</time>
</trkpt>
<trkpt lat="31.7810600" lon="35.0641900">
<ele>611.000000</ele>
<time>2010-01-01T02:04:36.000Z</time>
</trkpt>
<trkpt lat="31.7810400" lon="35.0638700">
<ele>609.000000</ele>
<time>2010-01-01T02:04:47.000Z</time>
</trkpt>
<trkpt lat="31.7809700" lon="35.0637400">
<ele>608.000000</ele>
<time>2010-01-01T02:04:52.000Z</time>
</trkpt>
<trkpt lat="31.7808900" lon="35.0636800">
<ele>607.000000</ele>
<time>2010-01-01T02:04:56.000Z</time>
</trkpt>
<trkpt lat="31.7807800" lon="35.0636800">
<ele>607.000000</ele>
<time>2010-01-01T02:05:00.000Z</time>
</trkpt>
<trkpt lat="31.7804100" lon="35.0638300">
<ele>611.000000</ele>
<time>2010-01-01T02:05:16.000Z</time>
</trkpt>
<trkpt lat="31.7792400" lon="35.0645500">
<ele>617.000000</ele>
<time>2010-01-01T02:06:09.000Z</time>
</trkpt>
<trkpt lat="31.7791700" lon="35.0645700">
<ele>618.000000</ele>
<time>2010-01-01T02:06:12.000Z</time>
</trkpt>
<trkpt lat="31.7790900" lon="35.0645700">
<ele>618.000000</ele>
<time>2010-01-01T02:06:15.000Z</time>
</trkpt>
<trkpt lat="31.7790400" lon="35.0645500">
<ele>618.000000</ele>
<time>2010-01-01T02:06:17.000Z</time>
</trkpt>
<trkpt lat="31.7789900" lon="35.0644900">
<ele>617.000000</ele>
<time>2010-01-01T02:06:20.000Z</time>
</trkpt>
<trkpt lat="31.7789500" lon="35.0644100">
<ele>617.000000</ele>
<time>2010-01-01T02:06:23.000Z</time>
</trkpt>
<trkpt lat="31.7789300" lon="35.0642800">
<ele>616.000000</ele>
<time>2010-01-01T02:06:28.000Z</time>
</trkpt>
<trkpt lat="31.7789700" lon="35.0640200">
<ele>613.000000</ele>
<time>2010-01-01T02:06:37.000Z</time>
</trkpt>
<trkpt lat="31.7790500" lon="35.0637800">
<ele>611.000000</ele>
<time>2010-01-01T02:06:45.000Z</time>
</trkpt>
<trkpt lat="31.7794000" lon="35.0629100">
<ele>604.000000</ele>
<time>2010-01-01T02:07:18.000Z</time>
</trkpt>
<trkpt lat="31.7796700" lon="35.0624100">
<ele>602.000000</ele>
<time>2010-01-01T02:07:38.000Z</time>
</trkpt>
<trkpt lat="31.7798900" lon="35.0619400">
<ele>599.000000</ele>
<time>2010-01-01T02:07:56.000Z</time>
</trkpt>
<trkpt lat="31.7801000" lon="35.0614500">
<ele>594.000000</ele>
<time>2010-01-01T02:08:15.000Z</time>
</trkpt>
<trkpt lat="31.7801700" lon="35.0612100">
<ele>595.000000</ele>
<time>2010-01-01T02:08:24.000Z</time>
</trkpt>
<trkpt lat="31.7802500" lon="35.0608600">
<ele>596.000000</ele>
<time>2010-01-01T02:08:36.000Z</time>
</trkpt>
<trkpt lat="31.7804000" lon="35.0597100">
<ele>593.000000</ele>
<time>2010-01-01T02:09:16.000Z</time>
</trkpt>
<trkpt lat="31.7804200" lon="35.0593800">
<ele>592.000000</ele>
<time>2010-01-01T02:09:27.000Z</time>
</trkpt>
<trkpt lat="31.7804200" lon="35.0590400">
<ele>589.000000</ele>
<time>2010-01-01T02:09:39.000Z</time>
</trkpt>
<trkpt lat="31.7804000" lon="35.0588300">
<ele>588.000000</ele>
<time>2010-01-01T02:09:46.000Z</time>
</trkpt>
<trkpt lat="31.7803500" lon="35.0585700">
<ele>588.000000</ele>
<time>2010-01-01T02:09:55.000Z</time>
</trkpt>
<trkpt lat="31.7803000" lon="35.0584100">
<ele>587.000000</ele>
<time>2010-01-01T02:10:01.000Z</time>
</trkpt>
<trkpt lat="31.7802100" lon="35.0582800">
<ele>586.000000</ele>
<time>2010-01-01T02:10:06.000Z</time>
</trkpt>
<trkpt lat="31.7800200" lon="35.0581500">
<ele>585.000000</ele>
<time>2010-01-01T02:10:15.000Z</time>
</trkpt>
<trkpt lat="31.7799300" lon="35.0581300">
<ele>585.000000</ele>
<time>2010-01-01T02:10:19.000Z</time>
</trkpt>
<trkpt lat="31.7797800" lon="35.0581100">
<ele>586.000000</ele>
<time>2010-01-01T02:10:25.000Z</time>
</trkpt>
<trkpt lat="31.7795700" lon="35.0581400">
<ele>587.000000</ele>
<time>2010-01-01T02:10:33.000Z</time>
</trkpt>
<trkpt lat="31.7793500" lon="35.0582100">
<ele>589.000000</ele>
<time>2010-01-01T02:10:42.000Z</time>
</trkpt>
<trkpt lat="31.7792100" lon="35.0582200">
<ele>590.000000</ele>
<time>2010-01-01T02:10:48.000Z</time>
</trkpt>
<trkpt lat="31.7791400" lon="35.0582100">
<ele>590.000000</ele>
<time>2010-01-01T02:10:51.000Z</time>
</trkpt>
<trkpt lat="31.7790800" lon="35.0581600">
<ele>591.000000</ele>
<time>2010-01-01T02:10:54.000Z</time>
</trkpt>
<trkpt lat="31.7790300" lon="35.0580400">
<ele>590.000000</ele>
<time>2010-01-01T02:10:58.000Z</time>
</trkpt>
<trkpt lat="31.7790300" lon="35.0579300">
<ele>589.000000</ele>
<time>2010-01-01T02:11:02.000Z</time>
</trkpt>
<trkpt lat="31.7790600" lon="35.0578000">
<ele>587.000000</ele>
<time>2010-01-01T02:11:07.000Z</time>
</trkpt>
<trkpt lat="31.7792700" lon="35.0573300">
<ele>584.000000</ele>
<time>2010-01-01T02:11:25.000Z</time>
</trkpt>
<trkpt lat="31.7796100" lon="35.0566400">
<ele>582.000000</ele>
<time>2010-01-01T02:11:52.000Z</time>
</trkpt>
<trkpt lat="31.7800500" lon="35.0556500">
<ele>586.000000</ele>
<time>2010-01-01T02:12:30.000Z</time>
</trkpt>
<trkpt lat="31.7802000" lon="35.0553500">
<ele>588.000000</ele>
<time>2010-01-01T02:12:42.000Z</time>
</trkpt>
<trkpt lat="31.7802700" lon="35.0552800">
<ele>589.000000</ele>
<time>2010-01-01T02:12:45.000Z</time>
</trkpt>
<trkpt lat="31.7801800" lon="35.0551600">
<ele>590.000000</ele>
<time>2010-01-01T02:12:51.000Z</time>
</trkpt>
<trkpt lat="31.7801600" lon="35.0550300">
<ele>591.000000</ele>
<time>2010-01-01T02:12:55.000Z</time>
</trkpt>
<trkpt lat="31.7799400" lon="35.0550400">
<ele>589.000000</ele>
<time>2010-01-01T02:13:04.000Z</time>
</trkpt>
<trkpt lat="31.7799400" lon="35.0549200">
<ele>589.000000</ele>
<time>2010-01-01T02:13:08.000Z</time>
</trkpt>
<trkpt lat="31.7799200" lon="35.0547700">
<ele>588.000000</ele>
<time>2010-01-01T02:13:13.000Z</time>
</trkpt>
<trkpt lat="31.7798600" lon="35.0546400">
<ele>586.000000</ele>
<time>2010-01-01T02:13:18.000Z</time>
</trkpt>
<trkpt lat="31.7797000" lon="35.0543100">
<ele>582.000000</ele>
<time>2010-01-01T02:13:31.000Z</time>
</trkpt>
<trkpt lat="31.7794300" lon="35.0537200">
<ele>575.000000</ele>
<time>2010-01-01T02:13:54.000Z</time>
</trkpt>
<trkpt lat="31.7791900" lon="35.0533200">
<ele>568.000000</ele>
<time>2010-01-01T02:14:11.000Z</time>
</trkpt>
<trkpt lat="31.7789000" lon="35.0529700">
<ele>561.000000</ele>
<time>2010-01-01T02:14:27.000Z</time>
</trkpt>
<trkpt lat="31.7787400" lon="35.0527300">
<ele>558.000000</ele>
<time>2010-01-01T02:14:38.000Z</time>
</trkpt>
<trkpt lat="31.7785600" lon="35.0527600">
<ele>557.000000</ele>
<time>2010-01-01T02:14:45.000Z</time>
</trkpt>
<trkpt lat="31.7784800" lon="35.0527200">
<ele>556.000000</ele>
<time>2010-01-01T02:14:49.000Z</time>
</trkpt>
<trkpt lat="31.7779500" lon="35.0523700">
<ele>549.000000</ele>
<time>2010-01-01T02:15:13.000Z</time>
</trkpt>
<trkpt lat="31.7773300" lon="35.0521500">
<ele>550.000000</ele>
<time>2010-01-01T02:15:39.000Z</time>
</trkpt>
<trkpt lat="31.7771300" lon="35.0520500">
<ele>548.000000</ele>
<time>2010-01-01T02:15:48.000Z</time>
</trkpt>
<trkpt lat="31.7769500" lon="35.0520400">
<ele>546.000000</ele>
<time>2010-01-01T02:15:55.000Z</time>
</trkpt>
<trkpt lat="31.7767600" lon="35.0520600">
<ele>545.000000</ele>
<time>2010-01-01T02:16:02.000Z</time>
</trkpt>
<trkpt lat="31.7766200" lon="35.0521800">
<ele>547.000000</ele>
<time>2010-01-01T02:16:09.000Z</time>
</trkpt>
<trkpt lat="31.7760300" lon="35.0528100">
<ele>547.000000</ele>
<time>2010-01-01T02:16:41.000Z</time>
</trkpt>
<trkpt lat="31.7758900" lon="35.0531400">
<ele>551.000000</ele>
<time>2010-01-01T02:16:54.000Z</time>
</trkpt>
<trkpt lat="31.7755000" lon="35.0540200">
<ele>555.000000</ele>
<time>2010-01-01T02:17:28.000Z</time>
</trkpt>
<trkpt lat="31.7753400" lon="35.0543000">
<ele>557.000000</ele>
<time>2010-01-01T02:17:39.000Z</time>
</trkpt>
<trkpt lat="31.7751700" lon="35.0545700">
<ele>557.000000</ele>
<time>2010-01-01T02:17:50.000Z</time>
</trkpt>
<trkpt lat="31.7750400" lon="35.0547200">
<ele>557.000000</ele>
<time>2010-01-01T02:17:58.000Z</time>
</trkpt>
<trkpt lat="31.7747600" lon="35.0552300">
<ele>560.000000</ele>
<time>2010-01-01T02:18:18.000Z</time>
</trkpt>
<trkpt lat="31.7746700" lon="35.0551400">
<ele>559.000000</ele>
<time>2010-01-01T02:18:23.000Z</time>
</trkpt>
<trkpt lat="31.7745900" lon="35.0550400">
<ele>560.000000</ele>
<time>2010-01-01T02:18:28.000Z</time>
</trkpt>
<trkpt lat="31.7745700" lon="35.0543500">
<ele>564.000000</ele>
<time>2010-01-01T02:18:51.000Z</time>
</trkpt>
<trkpt lat="31.7746400" lon="35.0540400">
<ele>562.000000</ele>
<time>2010-01-01T02:19:02.000Z</time>
</trkpt>
<trkpt lat="31.7746400" lon="35.0532800">
<ele>570.000000</ele>
<time>2010-01-01T02:19:28.000Z</time>
</trkpt>
<trkpt lat="31.7747000" lon="35.0527400">
<ele>572.000000</ele>
<time>2010-01-01T02:19:47.000Z</time>
</trkpt>
<trkpt lat="31.7747300" lon="35.0524700">
<ele>572.000000</ele>
<time>2010-01-01T02:19:56.000Z</time>
</trkpt>
<trkpt lat="31.7747700" lon="35.0514400">
<ele>584.000000</ele>
<time>2010-01-01T02:20:31.000Z</time>
</trkpt>
<trkpt lat="31.7749200" lon="35.0509600">
<ele>586.000000</ele>
<time>2010-01-01T02:20:48.000Z</time>
</trkpt>
<trkpt lat="31.7754900" lon="35.0500200">
<ele>583.000000</ele>
<time>2010-01-01T02:21:28.000Z</time>
</trkpt>
<trkpt lat="31.7754000" lon="35.0498800">
<ele>587.000000</ele>
<time>2010-01-01T02:21:34.000Z</time>
</trkpt>
<trkpt lat="31.7755700" lon="35.0495600">
<ele>586.000000</ele>
<time>2010-01-01T02:21:46.000Z</time>
</trkpt>
<trkpt lat="31.7757100" lon="35.0490800">
<ele>590.000000</ele>
<time>2010-01-01T02:22:04.000Z</time>
</trkpt>
<trkpt lat="31.7758800" lon="35.0489100">
<ele>591.000000</ele>
<time>2010-01-01T02:22:13.000Z</time>
</trkpt>
<trkpt lat="31.7760700" lon="35.0485900">
<ele>594.000000</ele>
<time>2010-01-01T02:22:26.000Z</time>
</trkpt>
<trkpt lat="31.7761300" lon="35.0485100">
<ele>594.000000</ele>
<time>2010-01-01T02:22:30.000Z</time>
</trkpt>
<trkpt lat="31.7758000" lon="35.0483700">
<ele>594.000000</ele>
<time>2010-01-01T02:22:44.000Z</time>
</trkpt>
<trkpt lat="31.7753800" lon="35.0485700">
<ele>595.000000</ele>
<time>2010-01-01T02:23:02.000Z</time>
</trkpt>
<trkpt lat="31.7746800" lon="35.0487600">
<ele>599.000000</ele>
<time>2010-01-01T02:23:31.000Z</time>
</trkpt>
<trkpt lat="31.7742600" lon="35.0488200">
<ele>604.000000</ele>
<time>2010-01-01T02:23:47.000Z</time>
</trkpt>
<trkpt lat="31.7739000" lon="35.0487600">
<ele>610.000000</ele>
<time>2010-01-01T02:24:02.000Z</time>
</trkpt>
<trkpt lat="31.7733000" lon="35.0485400">
<ele>616.000000</ele>
<time>2010-01-01T02:24:27.000Z</time>
</trkpt>
<trkpt lat="31.7728400" lon="35.0482300">
<ele>623.000000</ele>
<time>2010-01-01T02:24:48.000Z</time>
</trkpt>
<trkpt lat="31.7726600" lon="35.0479600">
<ele>625.999939</ele>
<time>2010-01-01T02:25:00.000Z</time>
</trkpt>
<trkpt lat="31.7725700" lon="35.0474500">
<ele>628.999939</ele>
<time>2010-01-01T02:25:18.000Z</time>
</trkpt>
<trkpt lat="31.7725700" lon="35.0474400">
<ele>628.999939</ele>
<time>2010-01-01T02:25:18.000Z</time>
</trkpt>
<trkpt lat="31.7724400" lon="35.0467400">
<ele>632.000000</ele>
<time>2010-01-01T02:25:43.000Z</time>
</trkpt>
<trkpt lat="31.7723700" lon="35.0465100">
<ele>633.000000</ele>
<time>2010-01-01T02:25:51.000Z</time>
</trkpt>
<trkpt lat="31.7722900" lon="35.0463400">
<ele>634.000000</ele>
<time>2010-01-01T02:25:57.000Z</time>
</trkpt>
<trkpt lat="31.7719500" lon="35.0462900">
<ele>636.000000</ele>
<time>2010-01-01T02:26:11.000Z</time>
</trkpt>
<trkpt lat="31.7720774" lon="35.0454103">
<ele>638.000000</ele>
<time>2010-01-01T02:26:42.000Z</time>
</trkpt>
<trkpt lat="31.7725061" lon="35.0441014">
<ele>640.000000</ele>
<time>2010-01-01T02:27:29.000Z</time>
</trkpt>
<trkpt lat="31.7718129" lon="35.0466442">
<ele>636.000000</ele>
<time>2010-01-01T02:29:00.000Z</time>
</trkpt>
<trkpt lat="31.7715575" lon="35.0466012">
<ele>633.000000</ele>
<time>2010-01-01T02:29:10.000Z</time>
</trkpt>
<trkpt lat="31.7704630" lon="35.0473093">
<ele>621.000000</ele>
<time>2010-01-01T02:30:00.000Z</time>
</trkpt>
<trkpt lat="31.7700434" lon="35.0483179">
<ele>621.000000</ele>
<time>2010-01-01T02:30:39.000Z</time>
</trkpt>
<trkpt lat="31.7698245" lon="35.0481247">
<ele>614.000000</ele>
<time>2010-01-01T02:30:50.000Z</time>
</trkpt>
<trkpt lat="31.7699887" lon="35.0471591">
<ele>605.000000</ele>
<time>2010-01-01T02:31:23.000Z</time>
</trkpt>
<trkpt lat="31.7703353" lon="35.0459361">
<ele>598.000000</ele>
<time>2010-01-01T02:32:07.000Z</time>
</trkpt>
<trkpt lat="31.7703170" lon="35.0454425">
<ele>592.000000</ele>
<time>2010-01-01T02:32:24.000Z</time>
</trkpt>
<trkpt lat="31.7703900" lon="35.0440907">
<ele>584.000000</ele>
<time>2010-01-01T02:33:10.000Z</time>
</trkpt>
<trkpt lat="31.7700434" lon="35.0427818">
<ele>569.000000</ele>
<time>2010-01-01T02:33:57.000Z</time>
</trkpt>
<trkpt lat="31.7697880" lon="35.0415587">
<ele>555.000000</ele>
<time>2010-01-01T02:34:39.000Z</time>
</trkpt>
<trkpt lat="31.7701164" lon="35.0405073">
<ele>549.000000</ele>
<time>2010-01-01T02:35:18.000Z</time>
</trkpt>
<trkpt lat="31.7699887" lon="35.0395417">
<ele>544.000000</ele>
<time>2010-01-01T02:35:51.000Z</time>
</trkpt>
<trkpt lat="31.7696785" lon="35.0386404">
<ele>532.000000</ele>
<time>2010-01-01T02:36:24.000Z</time>
</trkpt>
<trkpt lat="31.7695508" lon="35.0383830">
<ele>526.000000</ele>
<time>2010-01-01T02:36:34.000Z</time>
</trkpt>
<trkpt lat="31.7695144" lon="35.0379323">
<ele>522.000000</ele>
<time>2010-01-01T02:36:49.000Z</time>
</trkpt>
<trkpt lat="31.7697333" lon="35.0374388">
<ele>520.000000</ele>
<time>2010-01-01T02:37:08.000Z</time>
</trkpt>
<trkpt lat="31.7699887" lon="35.0371599">
<ele>521.000000</ele>
<time>2010-01-01T02:37:22.000Z</time>
</trkpt>
<trkpt lat="31.7701346" lon="35.0369238">
<ele>520.000000</ele>
<time>2010-01-01T02:37:32.000Z</time>
</trkpt>
<trkpt lat="31.7701893" lon="35.0359797">
<ele>510.000000</ele>
<time>2010-01-01T02:38:05.000Z</time>
</trkpt>
<trkpt lat="31.7703535" lon="35.0352287">
<ele>504.999969</ele>
<time>2010-01-01T02:38:31.000Z</time>
</trkpt>
<trkpt lat="31.7704083" lon="35.0346064">
<ele>499.000031</ele>
<time>2010-01-01T02:38:52.000Z</time>
</trkpt>
<trkpt lat="31.7702988" lon="35.0339412">
<ele>492.000000</ele>
<time>2010-01-01T02:39:15.000Z</time>
</trkpt>
<trkpt lat="31.7701346" lon="35.0331902">
<ele>486.000000</ele>
<time>2010-01-01T02:39:42.000Z</time>
</trkpt>
<trkpt lat="31.7700434" lon="35.0325679">
<ele>478.000000</ele>
<time>2010-01-01T02:40:03.000Z</time>
</trkpt>
<trkpt lat="31.7704812" lon="35.0321388">
<ele>481.000000</ele>
<time>2010-01-01T02:40:26.000Z</time>
</trkpt>
<trkpt lat="31.7708278" lon="35.0318813">
<ele>476.999969</ele>
<time>2010-01-01T02:40:42.000Z</time>
</trkpt>
<trkpt lat="31.7711015" lon="35.0316238">
<ele>472.000000</ele>
<time>2010-01-01T02:40:56.000Z</time>
</trkpt>
<trkpt lat="31.7713021" lon="35.0313663">
<ele>469.000000</ele>
<time>2010-01-01T02:41:08.000Z</time>
</trkpt>
<trkpt lat="31.7714500" lon="35.0311500">
<ele>465.999969</ele>
<time>2010-01-01T02:41:18.000Z</time>
</trkpt>
<trkpt lat="31.7714300" lon="35.0310700">
<ele>465.999969</ele>
<time>2010-01-01T02:41:21.000Z</time>
</trkpt>
<trkpt lat="31.7715300" lon="35.0307300">
<ele>462.000000</ele>
<time>2010-01-01T02:41:33.000Z</time>
</trkpt>
<trkpt lat="31.7715300" lon="35.0306700">
<ele>462.000000</ele>
<time>2010-01-01T02:41:35.000Z</time>
</trkpt>
<trkpt lat="31.7714600" lon="35.0304600">
<ele>461.000000</ele>
<time>2010-01-01T02:41:43.000Z</time>
</trkpt>
<trkpt lat="31.7714500" lon="35.0303500">
<ele>461.000000</ele>
<time>2010-01-01T02:41:46.000Z</time>
</trkpt>
<trkpt lat="31.7715000" lon="35.0301900">
<ele>460.000000</ele>
<time>2010-01-01T02:41:52.000Z</time>
</trkpt>
<trkpt lat="31.7715000" lon="35.0300700">
<ele>460.000000</ele>
<time>2010-01-01T02:41:56.000Z</time>
</trkpt>
<trkpt lat="31.7714500" lon="35.0299600">
<ele>459.000000</ele>
<time>2010-01-01T02:42:00.000Z</time>
</trkpt>
<trkpt lat="31.7712100" lon="35.0297400">
<ele>459.000000</ele>
<time>2010-01-01T02:42:13.000Z</time>
</trkpt>
<trkpt lat="31.7711800" lon="35.0296700">
<ele>459.000000</ele>
<time>2010-01-01T02:42:15.000Z</time>
</trkpt>
<trkpt lat="31.7712000" lon="35.0292600">
<ele>457.000000</ele>
<time>2010-01-01T02:42:29.000Z</time>
</trkpt>
<trkpt lat="31.7711800" lon="35.0290800">
<ele>457.000000</ele>
<time>2010-01-01T02:42:35.000Z</time>
</trkpt>
<trkpt lat="31.7711600" lon="35.0290000">
<ele>457.000000</ele>
<time>2010-01-01T02:42:38.000Z</time>
</trkpt>
<trkpt lat="31.7710300" lon="35.0288100">
<ele>458.000000</ele>
<time>2010-01-01T02:42:47.000Z</time>
</trkpt>
<trkpt lat="31.7710200" lon="35.0287300">
<ele>458.000000</ele>
<time>2010-01-01T02:42:49.000Z</time>
</trkpt>
<trkpt lat="31.7710300" lon="35.0287000">
<ele>458.000000</ele>
<time>2010-01-01T02:42:50.000Z</time>
</trkpt>
<trkpt lat="31.7707200" lon="35.0285900">
<ele>456.000000</ele>
<time>2010-01-01T02:43:03.000Z</time>
</trkpt>
<trkpt lat="31.7706100" lon="35.0284800">
<ele>454.000000</ele>
<time>2010-01-01T02:43:09.000Z</time>
</trkpt>
<trkpt lat="31.7705700" lon="35.0283600">
<ele>453.000000</ele>
<time>2010-01-01T02:43:14.000Z</time>
</trkpt>
<trkpt lat="31.7705100" lon="35.0280300">
<ele>450.000000</ele>
<time>2010-01-01T02:43:25.000Z</time>
</trkpt>
<trkpt lat="31.7704600" lon="35.0278200">
<ele>448.000000</ele>
<time>2010-01-01T02:43:32.000Z</time>
</trkpt>
<trkpt lat="31.7703500" lon="35.0275500">
<ele>442.000000</ele>
<time>2010-01-01T02:43:43.000Z</time>
</trkpt>
<trkpt lat="31.7702200" lon="35.0274000">
<ele>436.000000</ele>
<time>2010-01-01T02:43:50.000Z</time>
</trkpt>
<trkpt lat="31.7702200" lon="35.0273600">
<ele>436.000000</ele>
<time>2010-01-01T02:43:51.000Z</time>
</trkpt>
<trkpt lat="31.7703400" lon="35.0270600">
<ele>432.000000</ele>
<time>2010-01-01T02:44:03.000Z</time>
</trkpt>
<trkpt lat="31.7705500" lon="35.0268200">
<ele>432.000000</ele>
<time>2010-01-01T02:44:14.000Z</time>
</trkpt>
<trkpt lat="31.7706900" lon="35.0267700">
<ele>435.000031</ele>
<time>2010-01-01T02:44:20.000Z</time>
</trkpt>
<trkpt lat="31.7707500" lon="35.0266700">
<ele>435.000031</ele>
<time>2010-01-01T02:44:24.000Z</time>
</trkpt>
<trkpt lat="31.7708000" lon="35.0263700">
<ele>432.000000</ele>
<time>2010-01-01T02:44:35.000Z</time>
</trkpt>
<trkpt lat="31.7709500" lon="35.0259400">
<ele>431.000000</ele>
<time>2010-01-01T02:44:51.000Z</time>
</trkpt>
<trkpt lat="31.7709200" lon="35.0256900">
<ele>426.000000</ele>
<time>2010-01-01T02:44:59.000Z</time>
</trkpt>
<trkpt lat="31.7709500" lon="35.0254300">
<ele>422.000000</ele>
<time>2010-01-01T02:45:08.000Z</time>
</trkpt>
<trkpt lat="31.7710100" lon="35.0251400">
<ele>420.000000</ele>
<time>2010-01-01T02:45:18.000Z</time>
</trkpt>
<trkpt lat="31.7710100" lon="35.0249300">
<ele>417.000000</ele>
<time>2010-01-01T02:45:25.000Z</time>
</trkpt>
<trkpt lat="31.7709700" lon="35.0247800">
<ele>414.000000</ele>
<time>2010-01-01T02:45:31.000Z</time>
</trkpt>
<trkpt lat="31.7709700" lon="35.0247700">
<ele>414.000000</ele>
<time>2010-01-01T02:45:31.000Z</time>
</trkpt>
<trkpt lat="31.7708500" lon="35.0244100">
<ele>409.000000</ele>
<time>2010-01-01T02:45:44.000Z</time>
</trkpt>
<trkpt lat="31.7702623" lon="35.0247359">
<ele>404.000000</ele>
<time>2010-01-01T02:46:10.000Z</time>
</trkpt>
<trkpt lat="31.7696421" lon="35.0238561">
<ele>386.000000</ele>
<time>2010-01-01T02:46:49.000Z</time>
</trkpt>
<trkpt lat="31.7692407" lon="35.0231266">
<ele>379.000000</ele>
<time>2010-01-01T02:47:19.000Z</time>
</trkpt>
<trkpt lat="31.7687846" lon="35.0225901">
<ele>368.000000</ele>
<time>2010-01-01T02:47:44.000Z</time>
</trkpt>
<trkpt lat="31.7685657" lon="35.0220537">
<ele>358.000000</ele>
<time>2010-01-01T02:48:05.000Z</time>
</trkpt>
<trkpt lat="31.7686205" lon="35.0213456">
<ele>351.999969</ele>
<time>2010-01-01T02:48:29.000Z</time>
</trkpt>
<trkpt lat="31.7687117" lon="35.0208950">
<ele>348.000000</ele>
<time>2010-01-01T02:48:45.000Z</time>
</trkpt>
<trkpt lat="31.7687299" lon="35.0204014">
<ele>344.000000</ele>
<time>2010-01-01T02:49:02.000Z</time>
</trkpt>
<trkpt lat="31.7693684" lon="35.0196933">
<ele>345.000000</ele>
<time>2010-01-01T02:49:37.000Z</time>
</trkpt>
<trkpt lat="31.7698062" lon="35.0190496">
<ele>339.000000</ele>
<time>2010-01-01T02:50:05.000Z</time>
</trkpt>
<trkpt lat="31.7696421" lon="35.0183200">
<ele>325.000000</ele>
<time>2010-01-01T02:50:30.000Z</time>
</trkpt>
<trkpt lat="31.7699157" lon="35.0176978">
<ele>319.000000</ele>
<time>2010-01-01T02:50:54.000Z</time>
</trkpt>
<trkpt lat="31.7698792" lon="35.0170969">
<ele>310.000000</ele>
<time>2010-01-01T02:51:15.000Z</time>
</trkpt>
<trkpt lat="31.7696968" lon="35.0165820">
<ele>300.000000</ele>
<time>2010-01-01T02:51:34.000Z</time>
</trkpt>
<trkpt lat="31.7698245" lon="35.0163674">
<ele>301.000000</ele>
<time>2010-01-01T02:51:43.000Z</time>
</trkpt>
<trkpt lat="31.7701164" lon="35.0160455">
<ele>302.000000</ele>
<time>2010-01-01T02:51:59.000Z</time>
</trkpt>
<trkpt lat="31.7705907" lon="35.0163888">
<ele>301.000000</ele>
<time>2010-01-01T02:52:21.000Z</time>
</trkpt>
<trkpt lat="31.7706089" lon="35.0169467">
<ele>307.000000</ele>
<time>2010-01-01T02:52:40.000Z</time>
</trkpt>
<trkpt lat="31.7707366" lon="35.0169467">
<ele>304.000000</ele>
<time>2010-01-01T02:52:45.000Z</time>
</trkpt>
<trkpt lat="31.7709008" lon="35.0165390">
<ele>295.000000</ele>
<time>2010-01-01T02:53:00.000Z</time>
</trkpt>
<trkpt lat="31.7709738" lon="35.0160026">
<ele>294.000000</ele>
<time>2010-01-01T02:53:19.000Z</time>
</trkpt>
<trkpt lat="31.7714298" lon="35.0155735">
<ele>289.000000</ele>
<time>2010-01-01T02:53:42.000Z</time>
</trkpt>
<trkpt lat="31.7717100" lon="35.0153400">
<ele>286.000000</ele>
<time>2010-01-01T02:53:56.000Z</time>
</trkpt>
<trkpt lat="31.7718000" lon="35.0151000">
<ele>284.000000</ele>
<time>2010-01-01T02:54:05.000Z</time>
</trkpt>
<trkpt lat="31.7719500" lon="35.0148000">
<ele>282.000000</ele>
<time>2010-01-01T02:54:17.000Z</time>
</trkpt>
<trkpt lat="31.7724600" lon="35.0140900">
<ele>278.000000</ele>
<time>2010-01-01T02:54:48.000Z</time>
</trkpt>
<trkpt lat="31.7727400" lon="35.0136700">
<ele>277.000000</ele>
<time>2010-01-01T02:55:07.000Z</time>
</trkpt>
<trkpt lat="31.7731700" lon="35.0131600">
<ele>270.000000</ele>
<time>2010-01-01T02:55:31.000Z</time>
</trkpt>
<trkpt lat="31.7735100" lon="35.0130300">
<ele>267.000000</ele>
<time>2010-01-01T02:55:45.000Z</time>
</trkpt>
<trkpt lat="31.7735800" lon="35.0130500">
<ele>267.000000</ele>
<time>2010-01-01T02:55:48.000Z</time>
</trkpt>
<trkpt lat="31.7737200" lon="35.0131300">
<ele>267.000000</ele>
<time>2010-01-01T02:55:54.000Z</time>
</trkpt>
<trkpt lat="31.7738000" lon="35.0132000">
<ele>268.000000</ele>
<time>2010-01-01T02:55:58.000Z</time>
</trkpt>
<trkpt lat="31.7740100" lon="35.0134400">
<ele>271.000000</ele>
<time>2010-01-01T02:56:10.000Z</time>
</trkpt>
<trkpt lat="31.7740100" lon="35.0134300">
<ele>271.000000</ele>
<time>2010-01-01T02:56:11.000Z</time>
</trkpt>
<trkpt lat="31.7741900" lon="35.0136500">
<ele>274.000000</ele>
<time>2010-01-01T02:56:21.000Z</time>
</trkpt>
<trkpt lat="31.7743100" lon="35.0137400">
<ele>275.000000</ele>
<time>2010-01-01T02:56:27.000Z</time>
</trkpt>
<trkpt lat="31.7743800" lon="35.0137700">
<ele>276.000000</ele>
<time>2010-01-01T02:56:30.000Z</time>
</trkpt>
<trkpt lat="31.7744500" lon="35.0137500">
<ele>276.000000</ele>
<time>2010-01-01T02:56:32.000Z</time>
</trkpt>
<trkpt lat="31.7745100" lon="35.0137100">
<ele>276.000000</ele>
<time>2010-01-01T02:56:35.000Z</time>
</trkpt>
<trkpt lat="31.7745500" lon="35.0136400">
<ele>276.000000</ele>
<time>2010-01-01T02:56:38.000Z</time>
</trkpt>
<trkpt lat="31.7746800" lon="35.0133500">
<ele>275.000000</ele>
<time>2010-01-01T02:56:49.000Z</time>
</trkpt>
<trkpt lat="31.7747700" lon="35.0132400">
<ele>275.000000</ele>
<time>2010-01-01T02:56:54.000Z</time>
</trkpt>
<trkpt lat="31.7748100" lon="35.0132100">
<ele>275.000000</ele>
<time>2010-01-01T02:56:56.000Z</time>
</trkpt>
<trkpt lat="31.7748800" lon="35.0132200">
<ele>276.000000</ele>
<time>2010-01-01T02:56:59.000Z</time>
</trkpt>
<trkpt lat="31.7749100" lon="35.0132400">
<ele>276.000000</ele>
<time>2010-01-01T02:57:01.000Z</time>
</trkpt>
<trkpt lat="31.7749100" lon="35.0135400">
<ele>279.000000</ele>
<time>2010-01-01T02:57:11.000Z</time>
</trkpt>
<trkpt lat="31.7749800" lon="35.0142300">
<ele>284.000000</ele>
<time>2010-01-01T02:57:34.000Z</time>
</trkpt>
<trkpt lat="31.7751900" lon="35.0144500">
<ele>288.000000</ele>
<time>2010-01-01T02:57:46.000Z</time>
</trkpt>
<trkpt lat="31.7753000" lon="35.0142600">
<ele>286.000000</ele>
<time>2010-01-01T02:57:53.000Z</time>
</trkpt>
<trkpt lat="31.7752300" lon="35.0139900">
<ele>284.000000</ele>
<time>2010-01-01T02:58:03.000Z</time>
</trkpt>
<trkpt lat="31.7754100" lon="35.0138500">
<ele>282.000000</ele>
<time>2010-01-01T02:58:12.000Z</time>
</trkpt>
<trkpt lat="31.7756900" lon="35.0140900">
<ele>283.000000</ele>
<time>2010-01-01T02:58:26.000Z</time>
</trkpt>
<trkpt lat="31.7757800" lon="35.0142100">
<ele>283.000000</ele>
<time>2010-01-01T02:58:31.000Z</time>
</trkpt>
<trkpt lat="31.7758400" lon="35.0142500">
<ele>284.000000</ele>
<time>2010-01-01T02:58:34.000Z</time>
</trkpt>
<trkpt lat="31.7758300" lon="35.0142500">
<ele>284.000000</ele>
<time>2010-01-01T02:58:34.000Z</time>
</trkpt>
<trkpt lat="31.7759400" lon="35.0143300">
<ele>284.000000</ele>
<time>2010-01-01T02:58:39.000Z</time>
</trkpt>
<trkpt lat="31.7761100" lon="35.0144100">
<ele>284.000000</ele>
<time>2010-01-01T02:58:47.000Z</time>
</trkpt>
<trkpt lat="31.7764700" lon="35.0145300">
<ele>282.000000</ele>
<time>2010-01-01T02:59:02.000Z</time>
</trkpt>
<trkpt lat="31.7768400" lon="35.0147700">
<ele>280.000000</ele>
<time>2010-01-01T02:59:19.000Z</time>
</trkpt>
<trkpt lat="31.7770600" lon="35.0155600">
<ele>286.000000</ele>
<time>2010-01-01T02:59:47.000Z</time>
</trkpt>
<trkpt lat="31.7773800" lon="35.0159400">
<ele>280.000000</ele>
<time>2010-01-01T03:00:05.000Z</time>
</trkpt>
<trkpt lat="31.7775100" lon="35.0160400">
<ele>276.000000</ele>
<time>2010-01-01T03:00:11.000Z</time>
</trkpt>
<trkpt lat="31.7776800" lon="35.0160700">
<ele>272.000000</ele>
<time>2010-01-01T03:00:18.000Z</time>
</trkpt>
<trkpt lat="31.7780100" lon="35.0159400">
<ele>266.000000</ele>
<time>2010-01-01T03:00:32.000Z</time>
</trkpt>
<trkpt lat="31.7781700" lon="35.0159400">
<ele>266.000000</ele>
<time>2010-01-01T03:00:39.000Z</time>
</trkpt>
<trkpt lat="31.7782500" lon="35.0159700">
<ele>266.000000</ele>
<time>2010-01-01T03:00:42.000Z</time>
</trkpt>
<trkpt lat="31.7784400" lon="35.0161100">
<ele>267.000000</ele>
<time>2010-01-01T03:00:51.000Z</time>
</trkpt>
<trkpt lat="31.7786500" lon="35.0162100">
<ele>269.000000</ele>
<time>2010-01-01T03:01:00.000Z</time>
</trkpt>
<trkpt lat="31.7787900" lon="35.0162200">
<ele>270.000000</ele>
<time>2010-01-01T03:01:06.000Z</time>
</trkpt>
<trkpt lat="31.7790200" lon="35.0161900">
<ele>273.000000</ele>
<time>2010-01-01T03:01:15.000Z</time>
</trkpt>
<trkpt lat="31.7791500" lon="35.0161100">
<ele>273.000000</ele>
<time>2010-01-01T03:01:21.000Z</time>
</trkpt>
<trkpt lat="31.7791400" lon="35.0161000">
<ele>273.000000</ele>
<time>2010-01-01T03:01:21.000Z</time>
</trkpt>
<trkpt lat="31.7791800" lon="35.0160200">
<ele>273.000000</ele>
<time>2010-01-01T03:01:24.000Z</time>
</trkpt>
<trkpt lat="31.7792700" lon="35.0156000">
<ele>274.000000</ele>
<time>2010-01-01T03:01:39.000Z</time>
</trkpt>
<trkpt lat="31.7794200" lon="35.0147300">
<ele>266.000000</ele>
<time>2010-01-01T03:02:09.000Z</time>
</trkpt>
<trkpt lat="31.7795200" lon="35.0144600">
<ele>265.000000</ele>
<time>2010-01-01T03:02:19.000Z</time>
</trkpt>
<trkpt lat="31.7796400" lon="35.0143000">
<ele>265.000000</ele>
<time>2010-01-01T03:02:27.000Z</time>
</trkpt>
<trkpt lat="31.7796800" lon="35.0141400">
<ele>264.000000</ele>
<time>2010-01-01T03:02:32.000Z</time>
</trkpt>
<trkpt lat="31.7803400" lon="35.0144700">
<ele>271.000000</ele>
<time>2010-01-01T03:03:01.000Z</time>
</trkpt>
<trkpt lat="31.7810700" lon="35.0147100">
<ele>275.000000</ele>
<time>2010-01-01T03:03:31.000Z</time>
</trkpt>
<trkpt lat="31.7813400" lon="35.0147100">
<ele>275.000000</ele>
<time>2010-01-01T03:03:42.000Z</time>
</trkpt>
<trkpt lat="31.7813300" lon="35.0147100">
<ele>275.000000</ele>
<time>2010-01-01T03:03:43.000Z</time>
</trkpt>
<trkpt lat="31.7822600" lon="35.0147200">
<ele>281.000000</ele>
<time>2010-01-01T03:04:20.000Z</time>
</trkpt>
<trkpt lat="31.7830300" lon="35.0146000">
<ele>279.000000</ele>
<time>2010-01-01T03:04:51.000Z</time>
</trkpt>
<trkpt lat="31.7833800" lon="35.0146100">
<ele>280.000000</ele>
<time>2010-01-01T03:05:05.000Z</time>
</trkpt>
<trkpt lat="31.7842600" lon="35.0145800">
<ele>293.000000</ele>
<time>2010-01-01T03:05:40.000Z</time>
</trkpt>
<trkpt lat="31.7852300" lon="35.0143800">
<ele>297.000000</ele>
<time>2010-01-01T03:06:20.000Z</time>
</trkpt>
<trkpt lat="31.7861800" lon="35.0142800">
<ele>295.000000</ele>
<time>2010-01-01T03:06:58.000Z</time>
</trkpt>
<trkpt lat="31.7869400" lon="35.0141000">
<ele>299.000000</ele>
<time>2010-01-01T03:07:29.000Z</time>
</trkpt>
<trkpt lat="31.7885700" lon="35.0141100">
<ele>311.000000</ele>
<time>2010-01-01T03:08:34.000Z</time>
</trkpt>
<trkpt lat="31.7885600" lon="35.0141100">
<ele>312.000000</ele>
<time>2010-01-01T03:08:34.000Z</time>
</trkpt>
<trkpt lat="31.7889900" lon="35.0141100">
<ele>312.000000</ele>
<time>2010-01-01T03:08:52.000Z</time>
</trkpt>
<trkpt lat="31.7893700" lon="35.0140400">
<ele>314.000000</ele>
<time>2010-01-01T03:09:07.000Z</time>
</trkpt>
<trkpt lat="31.7897600" lon="35.0141400">
<ele>317.000000</ele>
<time>2010-01-01T03:09:23.000Z</time>
</trkpt>
<trkpt lat="31.7906500" lon="35.0142900">
<ele>318.000000</ele>
<time>2010-01-01T03:09:59.000Z</time>
</trkpt>
<trkpt lat="31.7915500" lon="35.0144700">
<ele>318.000000</ele>
<time>2010-01-01T03:10:36.000Z</time>
</trkpt>
<trkpt lat="31.7933000" lon="35.0147400">
<ele>341.000000</ele>
<time>2010-01-01T03:11:46.000Z</time>
</trkpt>
<trkpt lat="31.7936000" lon="35.0148700">
<ele>341.000000</ele>
<time>2010-01-01T03:11:59.000Z</time>
</trkpt>
<trkpt lat="31.7936000" lon="35.0148600">
<ele>341.000000</ele>
<time>2010-01-01T03:11:59.000Z</time>
</trkpt>
<trkpt lat="31.7937200" lon="35.0149300">
<ele>341.000000</ele>
<time>2010-01-01T03:12:05.000Z</time>
</trkpt>
<trkpt lat="31.7938300" lon="35.0150800">
<ele>341.000000</ele>
<time>2010-01-01T03:12:11.000Z</time>
</trkpt>
<trkpt lat="31.7938800" lon="35.0150300">
<ele>341.000000</ele>
<time>2010-01-01T03:12:14.000Z</time>
</trkpt>
<trkpt lat="31.7939900" lon="35.0150300">
<ele>340.000000</ele>
<time>2010-01-01T03:12:18.000Z</time>
</trkpt>
<trkpt lat="31.7942100" lon="35.0151100">
<ele>337.999969</ele>
<time>2010-01-01T03:12:28.000Z</time>
</trkpt>
<trkpt lat="31.7944600" lon="35.0152600">
<ele>333.000000</ele>
<time>2010-01-01T03:12:39.000Z</time>
</trkpt>
<trkpt lat="31.7947100" lon="35.0153600">
<ele>332.000000</ele>
<time>2010-01-01T03:12:49.000Z</time>
</trkpt>
<trkpt lat="31.7951500" lon="35.0154600">
<ele>330.000000</ele>
<time>2010-01-01T03:13:07.000Z</time>
</trkpt>
<trkpt lat="31.7951900" lon="35.0155200">
<ele>330.000000</ele>
<time>2010-01-01T03:13:10.000Z</time>
</trkpt>
<trkpt lat="31.7951600" lon="35.0157500">
<ele>333.000000</ele>
<time>2010-01-01T03:13:18.000Z</time>
</trkpt>
<trkpt lat="31.7956600" lon="35.0159500">
<ele>337.999969</ele>
<time>2010-01-01T03:13:39.000Z</time>
</trkpt>
<trkpt lat="31.7975100" lon="35.0160600">
<ele>344.000000</ele>
<time>2010-01-01T03:14:53.000Z</time>
</trkpt>
<trkpt lat="31.7984900" lon="35.0154200">
<ele>328.000000</ele>
<time>2010-01-01T03:15:38.000Z</time>
</trkpt>
<trkpt lat="31.7994200" lon="35.0150800">
<ele>319.000000</ele>
<time>2010-01-01T03:16:17.000Z</time>
</trkpt>
<trkpt lat="31.7997700" lon="35.0150100">
<ele>314.000000</ele>
<time>2010-01-01T03:16:31.000Z</time>
</trkpt>
<trkpt lat="31.7999300" lon="35.0149400">
<ele>312.000000</ele>
<time>2010-01-01T03:16:38.000Z</time>
</trkpt>
<trkpt lat="31.7999700" lon="35.0147300">
<ele>309.000000</ele>
<time>2010-01-01T03:16:45.000Z</time>
</trkpt>
<trkpt lat="31.8002000" lon="35.0147400">
<ele>307.000000</ele>
<time>2010-01-01T03:16:55.000Z</time>
</trkpt>
<trkpt lat="31.8006800" lon="35.0148400">
<ele>308.000000</ele>
<time>2010-01-01T03:17:14.000Z</time>
</trkpt>
<trkpt lat="31.8012500" lon="35.0150400">
<ele>309.000000</ele>
<time>2010-01-01T03:17:38.000Z</time>
</trkpt>
<trkpt lat="31.8021100" lon="35.0156700">
<ele>312.000000</ele>
<time>2010-01-01T03:18:19.000Z</time>
</trkpt>
<trkpt lat="31.8021100" lon="35.0156600">
<ele>312.000000</ele>
<time>2010-01-01T03:18:19.000Z</time>
</trkpt>
<trkpt lat="31.8024400" lon="35.0159100">
<ele>312.000000</ele>
<time>2010-01-01T03:18:35.000Z</time>
</trkpt>
<trkpt lat="31.8027900" lon="35.0162800">
<ele>312.999969</ele>
<time>2010-01-01T03:18:53.000Z</time>
</trkpt>
<trkpt lat="31.8047800" lon="35.0172800">
<ele>326.999969</ele>
<time>2010-01-01T03:20:20.000Z</time>
</trkpt>
<trkpt lat="31.8062500" lon="35.0179300">
<ele>318.000000</ele>
<time>2010-01-01T03:21:23.000Z</time>
</trkpt>
<trkpt lat="31.8075100" lon="35.0185700">
<ele>319.000000</ele>
<time>2010-01-01T03:22:18.000Z</time>
</trkpt>
<trkpt lat="31.8075900" lon="35.0189700">
<ele>325.000000</ele>
<time>2010-01-01T03:22:32.000Z</time>
</trkpt>
<trkpt lat="31.8079800" lon="35.0191800">
<ele>323.999969</ele>
<time>2010-01-01T03:22:49.000Z</time>
</trkpt>
<trkpt lat="31.8082700" lon="35.0195800">
<ele>325.000000</ele>
<time>2010-01-01T03:23:07.000Z</time>
</trkpt>
<trkpt lat="31.8092100" lon="35.0199900">
<ele>316.000000</ele>
<time>2010-01-01T03:23:47.000Z</time>
</trkpt>
<trkpt lat="31.8099931" lon="35.0207193">
<ele>315.000000</ele>
<time>2010-01-01T03:24:27.000Z</time>
</trkpt>
</trkseg>
</trk>
</gpx>
